Observation data for Big Lake on 01/11/2018      Previous  Date  Next       Current Mesonet Observations  Soil Data  Daily Summary Page  Observations in Plain Language
KBI1 110600Z 26006KT 14/00 A2975 RMK A01 T01380003  RH  040%=      5-min Rain = 0
KBI1 110601Z 24007KT 14/00 A2975 RMK A01 T01360002  RH  040%=      5-min Rain = 0
KBI1 110602Z 22007KT 14/00 A2975 RMK A01 T01350003  RH  040%=      5-min Rain = 0
KBI1 110603Z 19008KT 14/00 A2975 RMK A01 T01350003  RH  041%=      5-min Rain = 0
KBI1 110604Z 18008KT 13/00 A2976 RMK A01 T01320004  RH  041%=      5-min Rain = 0
KBI1 110605Z 19008KT 13/01 A2976 RMK A01 T01280005  RH  043%=      5-min Rain = 0
KBI1 110606Z 20009KT 13/01 A2976 RMK A01 T01250006  RH  044%=      5-min Rain = 0
KBI1 110607Z 20009KT 12/01 A2976 RMK A01 T01230007  RH  045%=      5-min Rain = 0
KBI1 110608Z 19008KT 12/01 A2976 RMK A01 T01220008  RH  046%=      5-min Rain = 0
KBI1 110609Z 19007KT 12/01 A2976 RMK A01 T01200008  RH  046%=      5-min Rain = 0
KBI1 110610Z 20007KT 12/01 A2976 RMK A01 T01190008  RH  047%=      5-min Rain = 0
KBI1 110611Z 21010KT 12/01 A2976 RMK A01 T01180009  RH  047%=      5-min Rain = 0
KBI1 110612Z 21009KT 12/01 A2976 RMK A01 T01180009  RH  047%=      5-min Rain = 0
KBI1 110613Z 21011KT 12/01 A2976 RMK A01 T01210011  RH  047%=      5-min Rain = 0
KBI1 110614Z 20008KT 12/01 A2976 RMK A01 T01240011  RH  046%=      5-min Rain = 0
KBI1 110615Z 21011KT 13/01 A2976 RMK A01 T01250010  RH  046%=      5-min Rain = 0
KBI1 110616Z 21012KT 13/01 A2976 RMK A01 T01250010  RH  045%=      5-min Rain = 0
KBI1 110617Z 21010KT 13/01 A2976 RMK A01 T01260011  RH  045%=      5-min Rain = 0
KBI1 110618Z 21009KT 13/01 A2976 RMK A01 T01270010  RH  045%=      5-min Rain = 0
KBI1 110619Z 20010KT 13/01 A2976 RMK A01 T01270010  RH  045%=      5-min Rain = 0
KBI1 110620Z 20011KT 13/01 A2976 RMK A01 T01260011  RH  045%=      5-min Rain = 0
KBI1 110621Z 20012KT 13/01 A2976 RMK A01 T01260012  RH  045%=      5-min Rain = 0
KBI1 110622Z 22014KT 13/01 A2976 RMK A01 T01270011  RH  045%=      5-min Rain = 0
KBI1 110623Z 22010KT 13/01 A2976 RMK A01 T01300011  RH  044%=      5-min Rain = 0
KBI1 110624Z 23010KT 13/01 A2976 RMK A01 T01300011  RH  044%=      5-min Rain = 0
KBI1 110625Z 22011KT 13/01 A2976 RMK A01 T01300010  RH  044%=      5-min Rain = 0
KBI1 110626Z 20010KT 13/01 A2976 RMK A01 T01310012  RH  044%=      5-min Rain = 0
KBI1 110627Z 20008KT 13/01 A2976 RMK A01 T01290013  RH  045%=      5-min Rain = 0
KBI1 110628Z 21009KT 13/01 A2976 RMK A01 T01260013  RH  046%=      5-min Rain = 0
KBI1 110629Z 22009KT 13/02 A2976 RMK A01 T01260016  RH  047%=      5-min Rain = 0
KBI1 110630Z 22008KT 13/02 A2976 RMK A01 T01250015  RH  047%=      5-min Rain = 0
KBI1 110631Z 23008KT 12/02 A2976 RMK A01 T01230015  RH  048%=      5-min Rain = 0
KBI1 110632Z 22008KT 12/02 A2976 RMK A01 T01220015  RH  048%=      5-min Rain = 0
KBI1 110633Z 22007KT 12/02 A2976 RMK A01 T01210017  RH  049%=      5-min Rain = 0
KBI1 110634Z 22008KT 12/02 A2976 RMK A01 T01200017  RH  049%=      5-min Rain = 0
KBI1 110635Z 21009KT 12/02 A2976 RMK A01 T01200019  RH  050%=      5-min Rain = 0
KBI1 110636Z 21007KT 12/02 A2976 RMK A01 T01190018  RH  050%=      5-min Rain = 0
KBI1 110637Z 21008KT 12/02 A2976 RMK A01 T01170019  RH  051%=      5-min Rain = 0
KBI1 110638Z 21008KT 12/02 A2976 RMK A01 T01160020  RH  052%=      5-min Rain = 0
KBI1 110639Z 22008KT 12/02 A2976 RMK A01 T01150020  RH  052%=      5-min Rain = 0
KBI1 110640Z 21008KT 11/02 A2976 RMK A01 T01140020  RH  052%=      5-min Rain = 0
KBI1 110641Z 21008KT 12/02 A2976 RMK A01 T01150020  RH  052%=      5-min Rain = 0
KBI1 110642Z 22007KT 11/02 A2976 RMK A01 T01140021  RH  053%=      5-min Rain = 0
KBI1 110643Z 21007KT 11/02 A2976 RMK A01 T01140021  RH  053%=      5-min Rain = 0
KBI1 110644Z 20007KT 11/02 A2976 RMK A01 T01130021  RH  053%=      5-min Rain = 0
KBI1 110645Z 20007KT 11/02 A2976 RMK A01 T01120021  RH  053%=      5-min Rain = 0
KBI1 110646Z 20008KT 11/02 A2976 RMK A01 T01110020  RH  054%=      5-min Rain = 0
KBI1 110647Z 20010KT 11/02 A2976 RMK A01 T01090020  RH  054%=      5-min Rain = 0
KBI1 110648Z 20010KT 11/02 A2976 RMK A01 T01100021  RH  054%=      5-min Rain = 0
KBI1 110649Z 21011KT 11/02 A2976 RMK A01 T01110022  RH  054%=      5-min Rain = 0
KBI1 110650Z 20011KT 11/02 A2976 RMK A01 T01120023  RH  054%=      5-min Rain = 0
KBI1 110651Z 21010KT 11/02 A2976 RMK A01 T01130024  RH  054%=      5-min Rain = 0
KBI1 110652Z 21010KT 11/02 A2976 RMK A01 T01120023  RH  054%=      5-min Rain = 0
KBI1 110653Z 21011KT 11/02 A2976 RMK A01 T01120024  RH  055%=      5-min Rain = 0
KBI1 110654Z 21011KT 11/03 A2976 RMK A01 T01120025  RH  055%=      5-min Rain = 0
KBI1 110655Z 21011KT 11/03 A2976 RMK A01 T01120025  RH  055%=      5-min Rain = 0
KBI1 110656Z 21010KT 11/03 A2976 RMK A01 T01120025  RH  055%=      5-min Rain = 0
KBI1 110657Z 21010KT 11/03 A2976 RMK A01 T01120025  RH  055%=      5-min Rain = 0
KBI1 110658Z 21009KT 11/03 A2976 RMK A01 T01110025  RH  055%=      5-min Rain = 0
KBI1 110659Z 21010KT 11/03 A2976 RMK A01 T01110025  RH  056%=      5-min Rain = 0
KBI1 110700Z 21010KT 11/03 A2976 RMK A01 T01110026  RH  056%=      5-min Rain = 0
KBI1 110701Z 21009KT 11/03 A2976 RMK A01 T01110025  RH  056%=      5-min Rain = 0
KBI1 110702Z 21010KT 11/03 A2976 RMK A01 T01100026  RH  056%=      5-min Rain = 0
KBI1 110703Z 21009KT 11/03 A2976 RMK A01 T01100026  RH  056%=      5-min Rain = 0
KBI1 110704Z 21008KT 11/03 A2976 RMK A01 T01100026  RH  056%=      5-min Rain = 0
KBI1 110705Z 21009KT 11/03 A2976 RMK A01 T01090026  RH  056%=      5-min Rain = 0
KBI1 110706Z 21009KT 11/03 A2976 RMK A01 T01090025  RH  056%=      5-min Rain = 0
KBI1 110707Z 21010KT 11/03 A2976 RMK A01 T01090025  RH  056%=      5-min Rain = 0
KBI1 110708Z 21008KT 11/03 A2976 RMK A01 T01090026  RH  056%=      5-min Rain = 0
KBI1 110709Z 21010KT 11/03 A2976 RMK A01 T01090025  RH  056%=      5-min Rain = 0
KBI1 110710Z 21009KT 11/03 A2976 RMK A01 T01090026  RH  056%=      5-min Rain = 0
KBI1 110711Z 22008KT 11/03 A2976 RMK A01 T01090025  RH  056%=      5-min Rain = 0
KBI1 110712Z 22008KT 11/03 A2976 RMK A01 T01090026  RH  056%=      5-min Rain = 0
KBI1 110713Z 22009KT 11/03 A2976 RMK A01 T01090025  RH  056%=      5-min Rain = 0
KBI1 110714Z 22007KT 11/03 A2976 RMK A01 T01090026  RH  056%=      5-min Rain = 0
KBI1 110715Z 21008KT 11/03 A2976 RMK A01 T01090026  RH  056%=      5-min Rain = 0
KBI1 110716Z 22007KT 11/03 A2976 RMK A01 T01090025  RH  056%=      5-min Rain = 0
KBI1 110717Z 22007KT 11/03 A2976 RMK A01 T01090025  RH  056%=      5-min Rain = 0
KBI1 110718Z 22007KT 11/03 A2976 RMK A01 T01080025  RH  056%=      5-min Rain = 0
KBI1 110719Z 22007KT 11/03 A2976 RMK A01 T01080025  RH  056%=      5-min Rain = 0
KBI1 110720Z 22008KT 11/03 A2976 RMK A01 T01080025  RH  057%=      5-min Rain = 0
KBI1 110721Z 22008KT 11/03 A2976 RMK A01 T01090025  RH  056%=      5-min Rain = 0
KBI1 110722Z 21007KT 11/03 A2976 RMK A01 T01090025  RH  056%=      5-min Rain = 0
KBI1 110723Z 21009KT 11/02 A2976 RMK A01 T01080024  RH  056%=      5-min Rain = 0
KBI1 110724Z 22009KT 11/03 A2976 RMK A01 T01090025  RH  056%=      5-min Rain = 0
KBI1 110725Z 21008KT 11/02 A2976 RMK A01 T01100024  RH  056%=      5-min Rain = 0
KBI1 110726Z 22010KT 11/02 A2976 RMK A01 T01100024  RH  055%=      5-min Rain = 0
KBI1 110727Z 22009G14KT 11/02 A2976 RMK A01 T01100024  RH  055%=      5-min Rain = 0
KBI1 110728Z 22009KT 11/02 A2976 RMK A01 T01120024  RH  054%=      5-min Rain = 0
KBI1 110729Z 22009KT 11/02 A2976 RMK A01 T01140023  RH  054%=      5-min Rain = 0
KBI1 110730Z 23009KT 11/02 A2976 RMK A01 T01140023  RH  054%=      5-min Rain = 0
KBI1 110731Z 23010KT 11/02 A2977 RMK A01 T01140023  RH  054%=      5-min Rain = 0
KBI1 110732Z 22009KT 11/02 A2977 RMK A01 T01140023  RH  053%=      5-min Rain = 0
KBI1 110733Z 22009KT 12/02 A2977 RMK A01 T01150023  RH  053%=      5-min Rain = 0
KBI1 110734Z 22009KT 12/02 A2977 RMK A01 T01150023  RH  053%=      5-min Rain = 0
KBI1 110735Z 22009KT 12/02 A2977 RMK A01 T01160023  RH  053%=      5-min Rain = 0
KBI1 110736Z 22008KT 12/02 A2976 RMK A01 T01160024  RH  053%=      5-min Rain = 0
KBI1 110737Z 22009KT 12/02 A2977 RMK A01 T01160024  RH  053%=      5-min Rain = 0
KBI1 110738Z 22008KT 12/02 A2977 RMK A01 T01160024  RH  053%=      5-min Rain = 0
KBI1 110739Z 22009KT 12/02 A2977 RMK A01 T01150023  RH  053%=      5-min Rain = 0
KBI1 110740Z 22008KT 11/02 A2977 RMK A01 T01140023  RH  053%=      5-min Rain = 0
KBI1 110741Z 22008KT 11/02 A2977 RMK A01 T01140023  RH  054%=      5-min Rain = 0
KBI1 110742Z 22008KT 11/02 A2977 RMK A01 T01130023  RH  054%=      5-min Rain = 0
KBI1 110743Z 22007KT 11/02 A2977 RMK A01 T01130023  RH  054%=      5-min Rain = 0
KBI1 110744Z 22008KT 11/02 A2977 RMK A01 T01130024  RH  054%=      5-min Rain = 0
KBI1 110745Z 22009KT 11/02 A2977 RMK A01 T01120023  RH  054%=      5-min Rain = 0
KBI1 110746Z 21009KT 11/02 A2977 RMK A01 T01120023  RH  054%=      5-min Rain = 0
KBI1 110747Z 21008KT 11/02 A2977 RMK A01 T01120023  RH  054%=      5-min Rain = 0
KBI1 110748Z 22009KT 11/02 A2977 RMK A01 T01120022  RH  054%=      5-min Rain = 0
KBI1 110749Z 21008KT 11/02 A2977 RMK A01 T01120022  RH  054%=      5-min Rain = 0
KBI1 110750Z 22009KT 11/02 A2977 RMK A01 T01120022  RH  054%=      5-min Rain = 0
KBI1 110751Z 22008KT 11/02 A2977 RMK A01 T01120021  RH  053%=      5-min Rain = 0
KBI1 110752Z 22007KT 11/02 A2977 RMK A01 T01130021  RH  053%=      5-min Rain = 0
KBI1 110753Z 22007KT 11/02 A2977 RMK A01 T01120021  RH  054%=      5-min Rain = 0
KBI1 110754Z 21009KT 11/02 A2977 RMK A01 T01110021  RH  054%=      5-min Rain = 0
KBI1 110755Z 21008KT 11/02 A2977 RMK A01 T01110020  RH  054%=      5-min Rain = 0
KBI1 110756Z 22008KT 11/02 A2977 RMK A01 T01120020  RH  053%=      5-min Rain = 0
KBI1 110757Z 21007KT 11/02 A2977 RMK A01 T01120020  RH  053%=      5-min Rain = 0
KBI1 110758Z 21007KT 11/02 A2977 RMK A01 T01110019  RH  053%=      5-min Rain = 0
KBI1 110759Z 21006KT 11/02 A2977 RMK A01 T01100019  RH  053%=      5-min Rain = 0
KBI1 110800Z 21007KT 11/02 A2977 RMK A01 T01090019  RH  054%=      5-min Rain = 0
KBI1 110801Z 21007KT 11/02 A2977 RMK A01 T01090020  RH  054%=      5-min Rain = 0
KBI1 110802Z 21008KT 11/02 A2977 RMK A01 T01090020  RH  054%=      5-min Rain = 0
KBI1 110803Z 21008KT 11/02 A2977 RMK A01 T01070019  RH  054%=      5-min Rain = 0
KBI1 110804Z 21009KT 11/02 A2977 RMK A01 T01070019  RH  054%=      5-min Rain = 0
KBI1 110805Z 21009KT 11/02 A2977 RMK A01 T01090018  RH  054%=      5-min Rain = 0
KBI1 110806Z 21009KT 11/02 A2977 RMK A01 T01100018  RH  053%=      5-min Rain = 0
KBI1 110807Z 21009KT 11/02 A2977 RMK A01 T01100018  RH  053%=      5-min Rain = 0
KBI1 110808Z 20009KT 11/02 A2977 RMK A01 T01100017  RH  053%=      5-min Rain = 0
KBI1 110809Z 20007KT 11/02 A2977 RMK A01 T01090017  RH  053%=      5-min Rain = 0
KBI1 110810Z 20008KT 11/02 A2977 RMK A01 T01070017  RH  054%=      5-min Rain = 0
KBI1 110811Z 20007KT 11/02 A2977 RMK A01 T01060017  RH  054%=      5-min Rain = 0
KBI1 110812Z 20008KT 11/02 A2977 RMK A01 T01060017  RH  054%=      5-min Rain = 0
KBI1 110813Z 20008KT 11/02 A2977 RMK A01 T01050017  RH  054%=      5-min Rain = 0
KBI1 110814Z 21008KT 11/02 A2977 RMK A01 T01050017  RH  055%=      5-min Rain = 0
KBI1 110815Z 20008KT 11/02 A2977 RMK A01 T01050017  RH  055%=      5-min Rain = 0
KBI1 110816Z 21008KT 10/02 A2977 RMK A01 T01040017  RH  055%=      5-min Rain = 0
KBI1 110817Z 21009KT 10/02 A2977 RMK A01 T01040017  RH  055%=      5-min Rain = 0
KBI1 110818Z 21009KT 10/02 A2977 RMK A01 T01040017  RH  055%=      5-min Rain = 0
KBI1 110819Z 21008KT 10/02 A2977 RMK A01 T01040017  RH  055%=      5-min Rain = 0
KBI1 110820Z 21007KT 10/02 A2977 RMK A01 T01040017  RH  055%=      5-min Rain = 0
KBI1 110821Z 21008KT 10/02 A2977 RMK A01 T01030016  RH  055%=      5-min Rain = 0
KBI1 110822Z 21007KT 10/02 A2977 RMK A01 T01020017  RH  055%=      5-min Rain = 0
KBI1 110823Z 21008KT 10/02 A2977 RMK A01 T01020017  RH  055%=      5-min Rain = 0
KBI1 110824Z 21008KT 10/02 A2977 RMK A01 T01020017  RH  056%=      5-min Rain = 0
KBI1 110825Z 21007KT 10/02 A2977 RMK A01 T01020017  RH  056%=      5-min Rain = 0
KBI1 110826Z 21007KT 10/02 A2977 RMK A01 T01020017  RH  056%=      5-min Rain = 0
KBI1 110827Z 21007KT 10/02 A2977 RMK A01 T01020017  RH  056%=      5-min Rain = 0
KBI1 110828Z 22007KT 10/02 A2977 RMK A01 T01010016  RH  056%=      5-min Rain = 0
KBI1 110829Z 21007KT 10/02 A2977 RMK A01 T01010016  RH  056%=      5-min Rain = 0
KBI1 110830Z 21007KT 10/02 A2977 RMK A01 T01010015  RH  055%=      5-min Rain = 0
KBI1 110831Z 21007KT 10/02 A2977 RMK A01 T01010016  RH  055%=      5-min Rain = 0
KBI1 110832Z 22008KT 10/02 A2977 RMK A01 T01010016  RH  055%=      5-min Rain = 0
KBI1 110833Z 21007KT 10/02 A2977 RMK A01 T01010016  RH  055%=      5-min Rain = 0
KBI1 110834Z 22007KT 10/02 A2977 RMK A01 T01000015  RH  055%=      5-min Rain = 0
KBI1 110835Z 21007KT 10/01 A2977 RMK A01 T00990014  RH  056%=      5-min Rain = 0
KBI1 110836Z 22007KT 10/01 A2977 RMK A01 T00990014  RH  056%=      5-min Rain = 0
KBI1 110837Z 21007KT 10/01 A2977 RMK A01 T00990014  RH  055%=      5-min Rain = 0
KBI1 110838Z 21007KT 10/01 A2976 RMK A01 T00990014  RH  055%=      5-min Rain = 0
KBI1 110839Z 21007KT 10/01 A2976 RMK A01 T00990014  RH  056%=      5-min Rain = 0
KBI1 110840Z 21006KT 10/02 A2976 RMK A01 T00990015  RH  056%=      5-min Rain = 0
KBI1 110841Z 21007KT 10/02 A2976 RMK A01 T00990015  RH  056%=      5-min Rain = 0
KBI1 110842Z 21007KT 10/01 A2976 RMK A01 T00990014  RH  056%=      5-min Rain = 0
KBI1 110843Z 22006KT 10/01 A2976 RMK A01 T00980014  RH  056%=      5-min Rain = 0
KBI1 110844Z 22008KT 10/01 A2976 RMK A01 T00980013  RH  055%=      5-min Rain = 0
KBI1 110845Z 23007KT 10/01 A2976 RMK A01 T00980013  RH  055%=      5-min Rain = 0
KBI1 110846Z 23007KT 10/01 A2976 RMK A01 T00980013  RH  055%=      5-min Rain = 0
KBI1 110847Z 23007KT 10/01 A2976 RMK A01 T00990012  RH  055%=      5-min Rain = 0
KBI1 110848Z 24007KT 10/01 A2976 RMK A01 T00990012  RH  055%=      5-min Rain = 0
KBI1 110849Z 24007KT 10/01 A2976 RMK A01 T00990011  RH  054%=      5-min Rain = 0
KBI1 110850Z 24007KT 10/01 A2976 RMK A01 T00990011  RH  054%=      5-min Rain = 0
KBI1 110851Z 25008KT 10/01 A2976 RMK A01 T01000011  RH  054%=      5-min Rain = 0
KBI1 110852Z 25008KT 10/01 A2976 RMK A01 T01040011  RH  053%=      5-min Rain = 0
KBI1 110853Z 26010KT 11/01 A2976 RMK A01 T01070011  RH  052%=      5-min Rain = 0
KBI1 110854Z 25011KT 11/01 A2976 RMK A01 T01130012  RH  050%=      5-min Rain = 0
KBI1 110855Z 26011KT 12/01 A2976 RMK A01 T01170011  RH  048%=      5-min Rain = 0
KBI1 110856Z 26010KT 12/01 A2976 RMK A01 T01190011  RH  047%=      5-min Rain = 0
KBI1 110857Z 25010KT 12/01 A2975 RMK A01 T01200010  RH  047%=      5-min Rain = 0
KBI1 110858Z 26010KT 12/01 A2975 RMK A01 T01210010  RH  046%=      5-min Rain = 0
KBI1 110859Z 25010KT 12/01 A2975 RMK A01 T01220010  RH  046%=      5-min Rain = 0
KBI1 110900Z 26010KT 12/01 A2975 RMK A01 T01230010  RH  046%=      5-min Rain = 0
KBI1 110901Z 25010KT 12/01 A2975 RMK A01 T01230010  RH  046%=      5-min Rain = 0
KBI1 110902Z 26010KT 12/01 A2975 RMK A01 T01230010  RH  046%=      5-min Rain = 0
KBI1 110903Z 26011KT 12/01 A2975 RMK A01 T01230009  RH  046%=      5-min Rain = 0
KBI1 110904Z 26012KT 12/01 A2975 RMK A01 T01240009  RH  045%=      5-min Rain = 0
KBI1 110905Z 26011KT 13/01 A2975 RMK A01 T01250010  RH  045%=      5-min Rain = 0
KBI1 110906Z 26012KT 13/01 A2975 RMK A01 T01260009  RH  045%=      5-min Rain = 0
KBI1 110907Z 26011KT 13/01 A2975 RMK A01 T01260010  RH  045%=      5-min Rain = 0
KBI1 110908Z 26011KT 13/01 A2975 RMK A01 T01260009  RH  045%=      5-min Rain = 0
KBI1 110909Z 26012KT 13/01 A2975 RMK A01 T01260009  RH  045%=      5-min Rain = 0
KBI1 110910Z 26011KT 13/01 A2975 RMK A01 T01260009  RH  045%=      5-min Rain = 0
KBI1 110911Z 26011KT 13/01 A2975 RMK A01 T01260009  RH  045%=      5-min Rain = 0
KBI1 110912Z 26011KT 13/01 A2975 RMK A01 T01270009  RH  045%=      5-min Rain = 0
KBI1 110913Z 25012KT 13/01 A2975 RMK A01 T01270009  RH  044%=      5-min Rain = 0
KBI1 110914Z 26010KT 13/01 A2975 RMK A01 T01290010  RH  044%=      5-min Rain = 0
KBI1 110915Z 25010KT 13/01 A2975 RMK A01 T01290009  RH  044%=      5-min Rain = 0
KBI1 110916Z 25011KT 13/01 A2975 RMK A01 T01290009  RH  044%=      5-min Rain = 0
KBI1 110917Z 25012KT 13/01 A2975 RMK A01 T01290009  RH  044%=      5-min Rain = 0
KBI1 110918Z 25010KT 13/01 A2975 RMK A01 T01290009  RH  044%=      5-min Rain = 0
KBI1 110919Z 25012KT 13/01 A2975 RMK A01 T01290009  RH  044%=      5-min Rain = 0
KBI1 110920Z 25010KT 13/01 A2975 RMK A01 T01300009  RH  044%=      5-min Rain = 0
KBI1 110921Z 25010KT 13/01 A2975 RMK A01 T01300009  RH  044%=      5-min Rain = 0
KBI1 110922Z 25010KT 13/01 A2975 RMK A01 T01300009  RH  044%=      5-min Rain = 0
KBI1 110923Z 25011KT 13/01 A2975 RMK A01 T01300009  RH  044%=      5-min Rain = 0
KBI1 110924Z 25012KT 13/01 A2975 RMK A01 T01290009  RH  044%=      5-min Rain = 0
KBI1 110925Z 25011KT 13/01 A2975 RMK A01 T01290009  RH  044%=      5-min Rain = 0
KBI1 110926Z 25012KT 13/01 A2975 RMK A01 T01300009  RH  044%=      5-min Rain = 0
KBI1 110927Z 25011KT 13/01 A2975 RMK A01 T01300009  RH  044%=      5-min Rain = 0
KBI1 110928Z 25010KT 13/01 A2975 RMK A01 T01300009  RH  044%=      5-min Rain = 0
KBI1 110929Z 25012G17KT 13/01 A2975 RMK A01 T01290009  RH  044%=      5-min Rain = 0
KBI1 110930Z 25011KT 13/01 A2975 RMK A01 T01280009  RH  044%=      5-min Rain = 0
KBI1 110931Z 25010KT 13/01 A2975 RMK A01 T01280009  RH  044%=      5-min Rain = 0
KBI1 110932Z 25010KT 13/01 A2975 RMK A01 T01280009  RH  044%=      5-min Rain = 0
KBI1 110933Z 25012KT 13/01 A2975 RMK A01 T01280009  RH  044%=      5-min Rain = 0
KBI1 110934Z 25010KT 13/01 A2975 RMK A01 T01290009  RH  044%=      5-min Rain = 0
KBI1 110935Z 25010KT 13/01 A2975 RMK A01 T01290009  RH  044%=      5-min Rain = 0
KBI1 110936Z 25012KT 13/01 A2975 RMK A01 T01280009  RH  044%=      5-min Rain = 0
KBI1 110937Z 24011KT 13/01 A2975 RMK A01 T01280009  RH  044%=      5-min Rain = 0
KBI1 110938Z 24011KT 13/01 A2975 RMK A01 T01280009  RH  044%=      5-min Rain = 0
KBI1 110939Z 24010KT 13/01 A2975 RMK A01 T01280009  RH  044%=      5-min Rain = 0
KBI1 110940Z 24009KT 13/01 A2975 RMK A01 T01280010  RH  044%=      5-min Rain = 0
KBI1 110941Z 24011KT 13/01 A2975 RMK A01 T01270009  RH  045%=      5-min Rain = 0
KBI1 110942Z 24011KT 13/01 A2975 RMK A01 T01270009  RH  045%=      5-min Rain = 0
KBI1 110943Z 25011KT 13/01 A2975 RMK A01 T01270009  RH  045%=      5-min Rain = 0
KBI1 110944Z 24010KT 13/01 A2975 RMK A01 T01270010  RH  045%=      5-min Rain = 0
KBI1 110945Z 24011KT 13/01 A2975 RMK A01 T01270009  RH  045%=      5-min Rain = 0
KBI1 110946Z 24010KT 13/01 A2975 RMK A01 T01270010  RH  045%=      5-min Rain = 0
KBI1 110947Z 25010KT 13/01 A2975 RMK A01 T01270010  RH  045%=      5-min Rain = 0
KBI1 110948Z 24012KT 13/01 A2975 RMK A01 T01260010  RH  045%=      5-min Rain = 0
KBI1 110949Z 24010KT 13/01 A2975 RMK A01 T01260010  RH  045%=      5-min Rain = 0
KBI1 110950Z 24011KT 13/01 A2975 RMK A01 T01270010  RH  045%=      5-min Rain = 0
KBI1 110951Z 24008KT 13/01 A2975 RMK A01 T01270010  RH  045%=      5-min Rain = 0
KBI1 110952Z 24007KT 13/01 A2975 RMK A01 T01260010  RH  045%=      5-min Rain = 0
KBI1 110953Z 24010KT 13/01 A2975 RMK A01 T01260010  RH  045%=      5-min Rain = 0
KBI1 110954Z 23009KT 13/01 A2975 RMK A01 T01260010  RH  045%=      5-min Rain = 0
KBI1 110955Z 24010KT 13/01 A2975 RMK A01 T01260010  RH  045%=      5-min Rain = 0
KBI1 110956Z 24010KT 13/01 A2975 RMK A01 T01260010  RH  045%=      5-min Rain = 0
KBI1 110957Z 24009KT 13/01 A2975 RMK A01 T01260010  RH  045%=      5-min Rain = 0
KBI1 110958Z 24008KT 13/01 A2975 RMK A01 T01260010  RH  045%=      5-min Rain = 0
KBI1 110959Z 24009KT 13/01 A2975 RMK A01 T01250010  RH  045%=      5-min Rain = 0
KBI1 111000Z 24010KT 13/01 A2975 RMK A01 T01250010  RH  045%=      5-min Rain = 0
KBI1 111001Z 24011KT 13/01 A2975 RMK A01 T01250010  RH  045%=      5-min Rain = 0
KBI1 111002Z 24010KT 13/01 A2975 RMK A01 T01260010  RH  045%=      5-min Rain = 0
KBI1 111003Z 24010KT 13/01 A2975 RMK A01 T01250010  RH  045%=      5-min Rain = 0
KBI1 111004Z 24009KT 13/01 A2975 RMK A01 T01250010  RH  045%=      5-min Rain = 0
KBI1 111005Z 24011KT 13/01 A2975 RMK A01 T01250010  RH  045%=      5-min Rain = 0
KBI1 111006Z 24010KT 13/01 A2975 RMK A01 T01250010  RH  045%=      5-min Rain = 0
KBI1 111007Z 25010KT 13/01 A2975 RMK A01 T01250010  RH  045%=      5-min Rain = 0
KBI1 111008Z 24011KT 13/01 A2975 RMK A01 T01250010  RH  045%=      5-min Rain = 0
KBI1 111009Z 24010KT 12/01 A2975 RMK A01 T01240010  RH  046%=      5-min Rain = 0
KBI1 111010Z 25012KT 12/01 A2975 RMK A01 T01240010  RH  046%=      5-min Rain = 0
KBI1 111011Z 25011KT 13/01 A2976 RMK A01 T01260010  RH  045%=      5-min Rain = 0
KBI1 111012Z 24011KT 13/01 A2976 RMK A01 T01260010  RH  045%=      5-min Rain = 0
KBI1 111013Z 24011KT 13/01 A2976 RMK A01 T01270010  RH  045%=      5-min Rain = 0
KBI1 111014Z 25011KT 13/01 A2976 RMK A01 T01270010  RH  045%=      5-min Rain = 0
KBI1 111015Z 25014KT 13/01 A2975 RMK A01 T01260010  RH  045%=      5-min Rain = 0
KBI1 111016Z 24013KT 13/01 A2976 RMK A01 T01260011  RH  045%=      5-min Rain = 0
KBI1 111017Z 25013KT 13/01 A2976 RMK A01 T01260010  RH  045%=      5-min Rain = 0
KBI1 111018Z 24013KT 13/01 A2975 RMK A01 T01260010  RH  045%=      5-min Rain = 0
KBI1 111019Z 25012KT 13/01 A2975 RMK A01 T01250010  RH  045%=      5-min Rain = 0
KBI1 111020Z 25012KT 13/01 A2975 RMK A01 T01250011  RH  045%=      5-min Rain = 0
KBI1 111021Z 24012KT 13/01 A2975 RMK A01 T01250010  RH  045%=      5-min Rain = 0
KBI1 111022Z 25012KT 13/01 A2975 RMK A01 T01250010  RH  045%=      5-min Rain = 0
KBI1 111023Z 25012KT 13/01 A2975 RMK A01 T01250010  RH  046%=      5-min Rain = 0
KBI1 111024Z 25011KT 13/01 A2975 RMK A01 T01250010  RH  046%=      5-min Rain = 0
KBI1 111025Z 25015KT 12/01 A2975 RMK A01 T01240010  RH  046%=      5-min Rain = 0
KBI1 111026Z 25015KT 13/01 A2975 RMK A01 T01260011  RH  045%=      5-min Rain = 0
KBI1 111027Z 25014KT 13/01 A2975 RMK A01 T01270011  RH  045%=      5-min Rain = 0
KBI1 111028Z 25013KT 13/01 A2975 RMK A01 T01270010  RH  045%=      5-min Rain = 0
KBI1 111029Z 25013KT 13/01 A2975 RMK A01 T01270011  RH  045%=      5-min Rain = 0
KBI1 111030Z 25012G17KT 13/01 A2975 RMK A01 T01270011  RH  045%=      5-min Rain = 0
KBI1 111031Z 25013KT 13/01 A2975 RMK A01 T01270011  RH  045%=      5-min Rain = 0
KBI1 111032Z 25012KT 13/01 A2976 RMK A01 T01270011  RH  045%=      5-min Rain = 0
KBI1 111033Z 25013G18KT 13/01 A2976 RMK A01 T01270011  RH  045%=      5-min Rain = 0
KBI1 111034Z 25013KT 13/01 A2976 RMK A01 T01270011  RH  045%=      5-min Rain = 0
KBI1 111035Z 25013KT 13/01 A2976 RMK A01 T01270010  RH  045%=      5-min Rain = 0
KBI1 111036Z 25014KT 13/01 A2976 RMK A01 T01270010  RH  045%=      5-min Rain = 0
KBI1 111037Z 25013KT 13/01 A2976 RMK A01 T01270011  RH  045%=      5-min Rain = 0
KBI1 111038Z 26015G20KT 13/01 A2976 RMK A01 T01270011  RH  045%=      5-min Rain = 0
KBI1 111039Z 25012KT 13/01 A2976 RMK A01 T01280011  RH  045%=      5-min Rain = 0
KBI1 111040Z 25014KT 13/01 A2975 RMK A01 T01280011  RH  045%=      5-min Rain = 0
KBI1 111041Z 25015KT 13/01 A2975 RMK A01 T01280011  RH  045%=      5-min Rain = 0
KBI1 111042Z 26013G18KT 13/01 A2975 RMK A01 T01280010  RH  045%=      5-min Rain = 0
KBI1 111043Z 26012KT 13/01 A2976 RMK A01 T01280011  RH  045%=      5-min Rain = 0
KBI1 111044Z 26013KT 13/01 A2976 RMK A01 T01270011  RH  045%=      5-min Rain = 0
KBI1 111045Z 25015KT 13/01 A2976 RMK A01 T01270011  RH  045%=      5-min Rain = 0
KBI1 111046Z 26013KT 13/01 A2976 RMK A01 T01270011  RH  045%=      5-min Rain = 0
KBI1 111047Z 26012KT 13/01 A2976 RMK A01 T01280011  RH  045%=      5-min Rain = 0
KBI1 111048Z 25012KT 13/01 A2976 RMK A01 T01270011  RH  045%=      5-min Rain = 0
KBI1 111049Z 25011KT 13/01 A2976 RMK A01 T01260011  RH  045%=      5-min Rain = 0
KBI1 111050Z 25014KT 13/01 A2976 RMK A01 T01260011  RH  045%=      5-min Rain = 0
KBI1 111051Z 25013KT 13/01 A2976 RMK A01 T01260011  RH  045%=      5-min Rain = 0
KBI1 111052Z 26013KT 13/01 A2976 RMK A01 T01260011  RH  045%=      5-min Rain = 0
KBI1 111053Z 26011KT 13/01 A2976 RMK A01 T01260011  RH  045%=      5-min Rain = 0
KBI1 111054Z 25013KT 13/01 A2976 RMK A01 T01260011  RH  045%=      5-min Rain = 0
KBI1 111055Z 25012KT 13/01 A2976 RMK A01 T01260011  RH  045%=      5-min Rain = 0
KBI1 111056Z 25012G17KT 13/01 A2976 RMK A01 T01270011  RH  045%=      5-min Rain = 0
KBI1 111057Z 25013KT 13/01 A2976 RMK A01 T01260011  RH  045%=      5-min Rain = 0
KBI1 111058Z 25012KT 13/01 A2976 RMK A01 T01260011  RH  045%=      5-min Rain = 0
KBI1 111059Z 25011KT 13/01 A2976 RMK A01 T01260011  RH  045%=      5-min Rain = 0
KBI1 111100Z 26013KT 13/01 A2976 RMK A01 T01250011  RH  046%=      5-min Rain = 0
KBI1 111101Z 26013KT 13/01 A2976 RMK A01 T01250011  RH  046%=      5-min Rain = 0
KBI1 111102Z 26014KT 13/01 A2976 RMK A01 T01250011  RH  046%=      5-min Rain = 0
KBI1 111103Z 26014KT 13/01 A2976 RMK A01 T01250011  RH  046%=      5-min Rain = 0
KBI1 111104Z 26012KT 13/01 A2976 RMK A01 T01260011  RH  045%=      5-min Rain = 0
KBI1 111105Z 26012KT 13/01 A2976 RMK A01 T01260011  RH  045%=      5-min Rain = 0
KBI1 111106Z 26013KT 13/01 A2976 RMK A01 T01250011  RH  046%=      5-min Rain = 0
KBI1 111107Z 26013KT 13/01 A2976 RMK A01 T01250011  RH  046%=      5-min Rain = 0
KBI1 111108Z 26012KT 13/01 A2976 RMK A01 T01250011  RH  046%=      5-min Rain = 0
KBI1 111109Z 26014KT 13/01 A2976 RMK A01 T01260011  RH  046%=      5-min Rain = 0
KBI1 111110Z 26015KT 13/01 A2976 RMK A01 T01260011  RH  045%=      5-min Rain = 0
KBI1 111111Z 25018G23KT 13/01 A2976 RMK A01 T01270011  RH  045%=      5-min Rain = 0
KBI1 111112Z 26016KT 13/01 A2976 RMK A01 T01270011  RH  045%=      5-min Rain = 0
KBI1 111113Z 26014KT 13/01 A2976 RMK A01 T01280011  RH  045%=      5-min Rain = 0
KBI1 111114Z 26014KT 13/01 A2976 RMK A01 T01280012  RH  045%=      5-min Rain = 0
KBI1 111115Z 26015KT 13/01 A2976 RMK A01 T01280012  RH  045%=      5-min Rain = 0
KBI1 111116Z 26016KT 13/01 A2976 RMK A01 T01280012  RH  045%=      5-min Rain = 0
KBI1 111117Z 26015KT 13/01 A2977 RMK A01 T01280012  RH  045%=      5-min Rain = 0
KBI1 111118Z 26016G21KT 13/01 A2977 RMK A01 T01280012  RH  045%=      5-min Rain = 0
KBI1 111119Z 26016G21KT 13/01 A2977 RMK A01 T01280012  RH  045%=      5-min Rain = 0
KBI1 111120Z 26017KT 13/01 A2977 RMK A01 T01290013  RH  045%=      5-min Rain = 0
KBI1 111121Z 27016KT 13/01 A2977 RMK A01 T01290014  RH  045%=      5-min Rain = 0
KBI1 111122Z 27016G21KT 13/01 A2977 RMK A01 T01290013  RH  045%=      5-min Rain = 0
KBI1 111123Z 26018KT 13/01 A2977 RMK A01 T01290013  RH  045%=      5-min Rain = 0
KBI1 111124Z 27015KT 13/01 A2978 RMK A01 T01290013  RH  045%=      5-min Rain = 0
KBI1 111125Z 26015G20KT 13/01 A2978 RMK A01 T01290014  RH  045%=      5-min Rain = 0
KBI1 111126Z 26016G21KT 13/01 A2978 RMK A01 T01290014  RH  045%=      5-min Rain = 0
KBI1 111127Z 26015KT 13/02 A2978 RMK A01 T01280016  RH  046%=      5-min Rain = 0
KBI1 111128Z 26014KT 13/02 A2978 RMK A01 T01270017  RH  047%=      5-min Rain = 0
KBI1 111129Z 26013KT 13/02 A2978 RMK A01 T01270018  RH  048%=      5-min Rain = 0
KBI1 111130Z 26012KT 13/02 A2978 RMK A01 T01260017  RH  047%=      5-min Rain = 0
KBI1 111131Z 27012KT 13/02 A2978 RMK A01 T01260018  RH  047%=      5-min Rain = 0
KBI1 111132Z 27012KT 13/02 A2978 RMK A01 T01260017  RH  047%=      5-min Rain = 0
KBI1 111133Z 27010KT 13/02 A2978 RMK A01 T01260016  RH  047%=      5-min Rain = 0
KBI1 111134Z 27010G15KT 13/02 A2978 RMK A01 T01260016  RH  047%=      5-min Rain = 0
KBI1 111135Z 27013KT 13/02 A2977 RMK A01 T01250015  RH  047%=      5-min Rain = 0
KBI1 111136Z 26011KT 13/02 A2977 RMK A01 T01260015  RH  047%=      5-min Rain = 0
KBI1 111137Z 26009KT 13/02 A2977 RMK A01 T01270015  RH  047%=      5-min Rain = 0
KBI1 111138Z 26010KT 13/02 A2977 RMK A01 T01260015  RH  047%=      5-min Rain = 0
KBI1 111139Z 26011KT 13/02 A2977 RMK A01 T01260015  RH  047%=      5-min Rain = 0
KBI1 111140Z 26011KT 13/02 A2977 RMK A01 T01260015  RH  047%=      5-min Rain = 0
KBI1 111141Z 27009KT 13/02 A2977 RMK A01 T01270015  RH  046%=      5-min Rain = 0
KBI1 111142Z 27011KT 13/02 A2977 RMK A01 T01270015  RH  046%=      5-min Rain = 0
KBI1 111143Z 26009KT 13/02 A2977 RMK A01 T01270015  RH  046%=      5-min Rain = 0
KBI1 111144Z 26009KT 13/01 A2977 RMK A01 T01270014  RH  046%=      5-min Rain = 0
KBI1 111145Z 27009KT 13/02 A2977 RMK A01 T01270015  RH  046%=      5-min Rain = 0
KBI1 111146Z 26009KT 13/02 A2977 RMK A01 T01260015  RH  046%=      5-min Rain = 0
KBI1 111147Z 27010KT 13/01 A2978 RMK A01 T01260014  RH  046%=      5-min Rain = 0
KBI1 111148Z 26012KT 13/02 A2978 RMK A01 T01260015  RH  046%=      5-min Rain = 0
KBI1 111149Z 26012KT 13/02 A2978 RMK A01 T01260015  RH  047%=      5-min Rain = 0
KBI1 111150Z 27011KT 13/02 A2978 RMK A01 T01270015  RH  046%=      5-min Rain = 0
KBI1 111151Z 26011KT 13/02 A2978 RMK A01 T01270015  RH  047%=      5-min Rain = 0
KBI1 111152Z 26010KT 13/02 A2978 RMK A01 T01270016  RH  047%=      5-min Rain = 0
KBI1 111153Z 26011KT 13/02 A2978 RMK A01 T01260016  RH  047%=      5-min Rain = 0
KBI1 111154Z 27010KT 13/02 A2978 RMK A01 T01260016  RH  047%=      5-min Rain = 0
KBI1 111155Z 26010KT 13/02 A2978 RMK A01 T01250017  RH  047%=      5-min Rain = 0
KBI1 111156Z 25013G21KT 13/02 A2977 RMK A01 T01250016  RH  047%=      5-min Rain = 0
KBI1 111157Z 25014KT 13/02 A2977 RMK A01 T01260017  RH  047%=      5-min Rain = 0
KBI1 111158Z 26014G19KT 13/02 A2977 RMK A01 T01270017  RH  047%=      5-min Rain = 0
KBI1 111159Z 26013KT 13/02 A2977 RMK A01 T01270017  RH  047%=      5-min Rain = 0
KBI1 111200Z 26013G19KT 13/02 A2977 RMK A01 T01270017  RH  047%=      5-min Rain = 0
KBI1 111201Z 26015KT 13/02 A2977 RMK A01 T01280018  RH  047%=      5-min Rain = 0
KBI1 111202Z 26016KT 13/02 A2977 RMK A01 T01280018  RH  047%=      5-min Rain = 0
KBI1 111203Z 27012KT 13/02 A2977 RMK A01 T01280019  RH  047%=      5-min Rain = 0
KBI1 111204Z 26018G24KT 13/02 A2977 RMK A01 T01280018  RH  047%=      5-min Rain = 0
KBI1 111205Z 26015KT 13/02 A2977 RMK A01 T01280018  RH  047%=      5-min Rain = 0
KBI1 111206Z 26014G19KT 13/02 A2977 RMK A01 T01290018  RH  047%=      5-min Rain = 0
KBI1 111207Z 26016KT 13/02 A2977 RMK A01 T01280018  RH  047%=      5-min Rain = 0
KBI1 111208Z 26016KT 13/02 A2977 RMK A01 T01280018  RH  047%=      5-min Rain = 0
KBI1 111209Z 26017KT 13/02 A2977 RMK A01 T01280018  RH  047%=      5-min Rain = 0
KBI1 111210Z 26016KT 13/02 A2977 RMK A01 T01280018  RH  047%=      5-min Rain = 0
KBI1 111211Z 26016KT 13/02 A2977 RMK A01 T01280018  RH  047%=      5-min Rain = 0
KBI1 111212Z 26015KT 13/02 A2977 RMK A01 T01280018  RH  047%=      5-min Rain = 0
KBI1 111213Z 27015KT 13/02 A2977 RMK A01 T01280018  RH  047%=      5-min Rain = 0
KBI1 111214Z 26014KT 13/02 A2977 RMK A01 T01270018  RH  047%=      5-min Rain = 0
KBI1 111215Z 26016G21KT 13/02 A2977 RMK A01 T01270018  RH  047%=      5-min Rain = 0
KBI1 111216Z 27019G24KT 13/02 A2977 RMK A01 T01270018  RH  047%=      5-min Rain = 0
KBI1 111217Z 26019KT 13/02 A2977 RMK A01 T01270018  RH  047%=      5-min Rain = 0
KBI1 111218Z 26014KT 13/02 A2978 RMK A01 T01270018  RH  047%=      5-min Rain = 0
KBI1 111219Z 27013KT 13/02 A2978 RMK A01 T01260018  RH  048%=      5-min Rain = 0
KBI1 111220Z 27015KT 13/02 A2978 RMK A01 T01250018  RH  048%=      5-min Rain = 0
KBI1 111221Z 27014KT 13/02 A2977 RMK A01 T01250018  RH  048%=      5-min Rain = 0
KBI1 111222Z 27012KT 12/02 A2977 RMK A01 T01240018  RH  048%=      5-min Rain = 0
KBI1 111223Z 27013KT 12/02 A2977 RMK A01 T01240018  RH  048%=      5-min Rain = 0
KBI1 111224Z 27014KT 12/02 A2977 RMK A01 T01230018  RH  049%=      5-min Rain = 0
KBI1 111225Z 27015KT 12/02 A2978 RMK A01 T01230018  RH  049%=      5-min Rain = 0
KBI1 111226Z 27016KT 12/02 A2978 RMK A01 T01230018  RH  049%=      5-min Rain = 0
KBI1 111227Z 27015KT 12/02 A2977 RMK A01 T01230018  RH  049%=      5-min Rain = 0
KBI1 111228Z 27016KT 12/02 A2978 RMK A01 T01240018  RH  049%=      5-min Rain = 0
KBI1 111229Z 27016KT 12/02 A2978 RMK A01 T01230019  RH  049%=      5-min Rain = 0
KBI1 111230Z 27013KT 12/02 A2978 RMK A01 T01230019  RH  049%=      5-min Rain = 0
KBI1 111231Z 27014KT 12/02 A2978 RMK A01 T01230019  RH  049%=      5-min Rain = 0
KBI1 111232Z 27017KT 12/02 A2978 RMK A01 T01220019  RH  049%=      5-min Rain = 0
KBI1 111233Z 27014KT 12/02 A2978 RMK A01 T01220019  RH  049%=      5-min Rain = 0
KBI1 111234Z 27013KT 12/02 A2978 RMK A01 T01220019  RH  049%=      5-min Rain = 0
KBI1 111235Z 27014KT 12/02 A2978 RMK A01 T01220019  RH  049%=      5-min Rain = 0
KBI1 111236Z 27013KT 12/02 A2978 RMK A01 T01220019  RH  049%=      5-min Rain = 0
KBI1 111237Z 27014KT 12/02 A2979 RMK A01 T01220019  RH  049%=      5-min Rain = 0
KBI1 111238Z 28014KT 12/02 A2979 RMK A01 T01220019  RH  049%=      5-min Rain = 0
KBI1 111239Z 27015KT 12/02 A2979 RMK A01 T01220019  RH  049%=      5-min Rain = 0
KBI1 111240Z 27012KT 12/02 A2979 RMK A01 T01220019  RH  049%=      5-min Rain = 0
KBI1 111241Z 27015G21KT 12/02 A2979 RMK A01 T01210019  RH  050%=      5-min Rain = 0
KBI1 111242Z 27016KT 12/02 A2979 RMK A01 T01210019  RH  050%=      5-min Rain = 0
KBI1 111243Z 27013G18KT 12/02 A2979 RMK A01 T01210019  RH  050%=      5-min Rain = 0
KBI1 111244Z 28011G17KT 12/02 A2979 RMK A01 T01210020  RH  050%=      5-min Rain = 0
KBI1 111245Z 28015G21KT 12/02 A2979 RMK A01 T01210020  RH  050%=      5-min Rain = 0
KBI1 111246Z 28017KT 12/02 A2979 RMK A01 T01210020  RH  050%=      5-min Rain = 0
KBI1 111247Z 28014G19KT 12/02 A2979 RMK A01 T01220020  RH  050%=      5-min Rain = 0
KBI1 111248Z 28014KT 12/02 A2979 RMK A01 T01220020  RH  050%=      5-min Rain = 0
KBI1 111249Z 28015KT 12/02 A2979 RMK A01 T01210020  RH  050%=      5-min Rain = 0
KBI1 111250Z 28014KT 12/02 A298 RMK A01 T01210020  RH  050%=      5-min Rain = 0
KBI1 111251Z 29013KT 12/02 A298 RMK A01 T01210021  RH  050%=      5-min Rain = 0
KBI1 111252Z 28014G19KT 12/02 A298 RMK A01 T01200021  RH  050%=      5-min Rain = 0
KBI1 111253Z 28013KT 12/02 A298 RMK A01 T01200021  RH  051%=      5-min Rain = 0
KBI1 111254Z 28016KT 12/02 A298 RMK A01 T01200021  RH  051%=      5-min Rain = 0
KBI1 111255Z 28016KT 12/02 A298 RMK A01 T01200021  RH  051%=      5-min Rain = 0
KBI1 111256Z 28016KT 12/02 A298 RMK A01 T01210021  RH  050%=      5-min Rain = 0
KBI1 111257Z 28015KT 12/02 A298 RMK A01 T01220022  RH  050%=      5-min Rain = 0
KBI1 111258Z 28015KT 12/02 A298 RMK A01 T01210021  RH  050%=      5-min Rain = 0
KBI1 111259Z 28015KT 12/02 A298 RMK A01 T01220021  RH  050%=      5-min Rain = 0
KBI1 111300Z 28015G22KT 12/02 A2981 RMK A01 T01220022  RH  050%=      5-min Rain = 0
KBI1 111301Z 28017KT 12/02 A2981 RMK A01 T01220021  RH  050%=      5-min Rain = 0
KBI1 111302Z 28016KT 12/02 A2981 RMK A01 T01230022  RH  050%=      5-min Rain = 0
KBI1 111303Z 28016KT 12/02 A2981 RMK A01 T01230022  RH  050%=      5-min Rain = 0
KBI1 111304Z 28015G20KT 12/02 A2981 RMK A01 T01230022  RH  050%=      5-min Rain = 0
KBI1 111305Z 28016KT 12/02 A2981 RMK A01 T01240022  RH  050%=      5-min Rain = 0
KBI1 111306Z 28015KT 12/02 A2981 RMK A01 T01240022  RH  050%=      5-min Rain = 0
KBI1 111307Z 28016KT 12/02 A2981 RMK A01 T01240022  RH  050%=      5-min Rain = 0
KBI1 111308Z 27013G18KT 12/02 A2981 RMK A01 T01240022  RH  050%=      5-min Rain = 0
KBI1 111309Z 28017KT 13/02 A2981 RMK A01 T01250022  RH  050%=      5-min Rain = 0
KBI1 111310Z 28014KT 13/02 A2981 RMK A01 T01250022  RH  050%=      5-min Rain = 0
KBI1 111311Z 28012G17KT 12/02 A2981 RMK A01 T01240022  RH  050%=      5-min Rain = 0
KBI1 111312Z 28014KT 12/02 A2981 RMK A01 T01240022  RH  050%=      5-min Rain = 0
KBI1 111313Z 28015KT 12/02 A2981 RMK A01 T01240022  RH  050%=      5-min Rain = 0
KBI1 111314Z 28014KT 12/02 A2981 RMK A01 T01240022  RH  050%=      5-min Rain = 0
KBI1 111315Z 28014KT 12/02 A2981 RMK A01 T01240022  RH  050%=      5-min Rain = 0
KBI1 111316Z 28015KT 12/02 A2981 RMK A01 T01240022  RH  050%=      5-min Rain = 0
KBI1 111317Z 28014KT 12/02 A2981 RMK A01 T01240022  RH  050%=      5-min Rain = 0
KBI1 111318Z 28013KT 12/02 A2982 RMK A01 T01240022  RH  050%=      5-min Rain = 0
KBI1 111319Z 28015KT 12/02 A2982 RMK A01 T01240022  RH  050%=      5-min Rain = 0
KBI1 111320Z 28012KT 12/02 A2982 RMK A01 T01240022  RH  050%=      5-min Rain = 0
KBI1 111321Z 28015G20KT 12/02 A2982 RMK A01 T01240022  RH  050%=      5-min Rain = 0
KBI1 111322Z 28015KT 12/02 A2982 RMK A01 T01230022  RH  050%=      5-min Rain = 0
KBI1 111323Z 28013KT 12/02 A2982 RMK A01 T01230022  RH  050%=      5-min Rain = 0
KBI1 111324Z 28013KT 12/02 A2982 RMK A01 T01240022  RH  050%=      5-min Rain = 0
KBI1 111325Z 28011G16KT 12/02 A2982 RMK A01 T01230022  RH  050%=      5-min Rain = 0
KBI1 111326Z 28013KT 12/02 A2982 RMK A01 T01230022  RH  050%=      5-min Rain = 0
KBI1 111327Z 28013G18KT 12/02 A2982 RMK A01 T01230022  RH  050%=      5-min Rain = 0
KBI1 111328Z 28015KT 12/02 A2982 RMK A01 T01230022  RH  050%=      5-min Rain = 0
KBI1 111329Z 28013KT 12/02 A2982 RMK A01 T01230021  RH  050%=      5-min Rain = 0
KBI1 111330Z 28012KT 12/02 A2982 RMK A01 T01230021  RH  050%=      5-min Rain = 0
KBI1 111331Z 28014KT 12/02 A2982 RMK A01 T01230021  RH  050%=      5-min Rain = 0
KBI1 111332Z 27012G17KT 12/02 A2982 RMK A01 T01230021  RH  050%=      5-min Rain = 0
KBI1 111333Z 28014KT 12/02 A2982 RMK A01 T01230022  RH  050%=      5-min Rain = 0
KBI1 111334Z 28013KT 12/02 A2982 RMK A01 T01230021  RH  050%=      5-min Rain = 0
KBI1 111335Z 28014KT 12/02 A2982 RMK A01 T01230022  RH  050%=      5-min Rain = 0
KBI1 111336Z 28012KT 12/02 A2982 RMK A01 T01230022  RH  050%=      5-min Rain = 0
KBI1 111337Z 28014KT 12/02 A2982 RMK A01 T01230021  RH  050%=      5-min Rain = 0
KBI1 111338Z 28014KT 12/02 A2982 RMK A01 T01230021  RH  050%=      5-min Rain = 0
KBI1 111339Z 28014KT 12/02 A2982 RMK A01 T01230022  RH  050%=      5-min Rain = 0
KBI1 111340Z 28017KT 12/02 A2982 RMK A01 T01230021  RH  050%=      5-min Rain = 0
KBI1 111341Z 28014KT 12/02 A2983 RMK A01 T01230021  RH  050%=      5-min Rain = 0
KBI1 111342Z 28015KT 12/02 A2983 RMK A01 T01230021  RH  050%=      5-min Rain = 0
KBI1 111343Z 28014KT 12/02 A2983 RMK A01 T01230021  RH  050%=      5-min Rain = 0
KBI1 111344Z 28013G18KT 12/02 A2983 RMK A01 T01230021  RH  050%=      5-min Rain = 0
KBI1 111345Z 28013KT 12/02 A2983 RMK A01 T01230022  RH  050%=      5-min Rain = 0
KBI1 111346Z 28014KT 12/02 A2983 RMK A01 T01230021  RH  050%=      5-min Rain = 0
KBI1 111347Z 28012KT 12/02 A2983 RMK A01 T01230021  RH  050%=      5-min Rain = 0
KBI1 111348Z 28013KT 12/02 A2983 RMK A01 T01230021  RH  050%=      5-min Rain = 0
KBI1 111349Z 28013KT 12/02 A2983 RMK A01 T01220022  RH  050%=      5-min Rain = 0
KBI1 111350Z 28013KT 12/02 A2983 RMK A01 T01220021  RH  050%=      5-min Rain = 0
KBI1 111351Z 28016KT 12/02 A2983 RMK A01 T01220021  RH  050%=      5-min Rain = 0
KBI1 111352Z 28016KT 12/02 A2983 RMK A01 T01230021  RH  050%=      5-min Rain = 0
KBI1 111353Z 28013KT 12/02 A2983 RMK A01 T01230021  RH  050%=      5-min Rain = 0
KBI1 111354Z 28014KT 12/02 A2983 RMK A01 T01230021  RH  050%=      5-min Rain = 0
KBI1 111355Z 29013KT 12/02 A2984 RMK A01 T01230021  RH  050%=      5-min Rain = 0
KBI1 111356Z 28014KT 12/02 A2984 RMK A01 T01230021  RH  050%=      5-min Rain = 0
KBI1 111357Z 28015KT 12/02 A2984 RMK A01 T01230022  RH  050%=      5-min Rain = 0
KBI1 111358Z 28014KT 12/02 A2984 RMK A01 T01230021  RH  050%=      5-min Rain = 0
KBI1 111359Z 28015KT 12/02 A2984 RMK A01 T01230021  RH  050%=      5-min Rain = 0
KBI1 111400Z 29015KT 12/02 A2984 RMK A01 T01230021  RH  050%=      5-min Rain = 0
KBI1 111401Z 29015KT 12/02 A2984 RMK A01 T01230021  RH  050%=      5-min Rain = 0
KBI1 111402Z 29016KT 12/02 A2984 RMK A01 T01230021  RH  050%=      5-min Rain = 0
KBI1 111403Z 29015KT 12/02 A2985 RMK A01 T01230021  RH  050%=      5-min Rain = 0
KBI1 111404Z 29014KT 12/02 A2985 RMK A01 T01230021  RH  050%=      5-min Rain = 0
KBI1 111405Z 30013G18KT 12/02 A2985 RMK A01 T01240022  RH  050%=      5-min Rain = 0
KBI1 111406Z 30016KT 12/02 A2985 RMK A01 T01240022  RH  050%=      5-min Rain = 0
KBI1 111407Z 30015G25KT 12/02 A2985 RMK A01 T01240022  RH  050%=      5-min Rain = 0
KBI1 111408Z 31020G26KT 12/02 A2985 RMK A01 T01240022  RH  050%=      5-min Rain = 0
KBI1 111409Z 32017KT 13/02 A2985 RMK A01 T01260022  RH  049%=      5-min Rain = 0
KBI1 111410Z 32020G28KT 13/02 A2985 RMK A01 T01270022  RH  049%=      5-min Rain = 0
KBI1 111411Z 32018KT 13/02 A2985 RMK A01 T01260022  RH  049%=      5-min Rain = 0
KBI1 111412Z 32015G22KT 13/02 A2986 RMK A01 T01260023  RH  049%=      5-min Rain = 0
KBI1 111413Z 32017KT 13/02 A2986 RMK A01 T01260022  RH  049%=      5-min Rain = 0
KBI1 111414Z 31015KT 13/02 A2986 RMK A01 T01260022  RH  049%=      5-min Rain = 0
KBI1 111415Z 32014KT 13/02 A2986 RMK A01 T01260022  RH  049%=      5-min Rain = 0
KBI1 111416Z 31017KT 13/02 A2986 RMK A01 T01250022  RH  049%=      5-min Rain = 0
KBI1 111417Z 32017KT 13/02 A2986 RMK A01 T01260023  RH  050%=      5-min Rain = 0
KBI1 111418Z 32015G20KT 13/02 A2986 RMK A01 T01250023  RH  050%=      5-min Rain = 0
KBI1 111419Z 32016G21KT 13/02 A2986 RMK A01 T01250022  RH  050%=      5-min Rain = 0
KBI1 111420Z 32014KT 13/02 A2987 RMK A01 T01250023  RH  050%=      5-min Rain = 0
KBI1 111421Z 32017G22KT 13/02 A2987 RMK A01 T01250023  RH  050%=      5-min Rain = 0
KBI1 111422Z 32016KT 12/02 A2987 RMK A01 T01240023  RH  050%=      5-min Rain = 0
KBI1 111423Z 32016KT 12/02 A2987 RMK A01 T01240023  RH  050%=      5-min Rain = 0
KBI1 111424Z 32013KT 12/02 A2987 RMK A01 T01230023  RH  050%=      5-min Rain = 0
KBI1 111425Z 33016G21KT 12/02 A2987 RMK A01 T01230023  RH  050%=      5-min Rain = 0
KBI1 111426Z 32017KT 12/02 A2987 RMK A01 T01230024  RH  051%=      5-min Rain = 0
KBI1 111427Z 32018G23KT 12/02 A2987 RMK A01 T01220023  RH  051%=      5-min Rain = 0
KBI1 111428Z 33015KT 12/02 A2988 RMK A01 T01220024  RH  051%=      5-min Rain = 0
KBI1 111429Z 32016KT 12/02 A2988 RMK A01 T01220024  RH  051%=      5-min Rain = 0
KBI1 111430Z 33017KT 12/02 A2988 RMK A01 T01220024  RH  051%=      5-min Rain = 0
KBI1 111431Z 32018G23KT 12/02 A2988 RMK A01 T01210024  RH  051%=      5-min Rain = 0
KBI1 111432Z 32018KT 12/02 A2988 RMK A01 T01210024  RH  051%=      5-min Rain = 0
KBI1 111433Z 32015KT 12/02 A2988 RMK A01 T01210024  RH  052%=      5-min Rain = 0
KBI1 111434Z 32015KT 12/03 A2988 RMK A01 T01210025  RH  052%=      5-min Rain = 0
KBI1 111435Z 32022G27KT 12/03 A2988 RMK A01 T01210026  RH  052%=      5-min Rain = 0
KBI1 111436Z 32019G24KT 12/03 A2988 RMK A01 T01200026  RH  053%=      5-min Rain = 0
KBI1 111437Z 32019G24KT 12/03 A2988 RMK A01 T01200027  RH  053%=      5-min Rain = 0
KBI1 111438Z 32016KT 12/03 A2989 RMK A01 T01190027  RH  053%=      5-min Rain = 0
KBI1 111439Z 33015KT 12/03 A2989 RMK A01 T01180028  RH  054%=      5-min Rain = 0
KBI1 111440Z 33016G21KT 12/03 A2989 RMK A01 T01180028  RH  054%=      5-min Rain = 0
KBI1 111441Z 32020G25KT 12/03 A2989 RMK A01 T01170028  RH  054%=      5-min Rain = 0
KBI1 111442Z 33020KT 12/03 A2989 RMK A01 T01170029  RH  055%=      5-min Rain = 0
KBI1 111443Z 33018KT 12/03 A2989 RMK A01 T01160029  RH  055%=      5-min Rain = 0
KBI1 111444Z 33017KT 12/03 A299 RMK A01 T01150029  RH  055%=      5-min Rain = 0
KBI1 111445Z 34019G25KT 12/03 A299 RMK A01 T01150029  RH  056%=      5-min Rain = 0
KBI1 111446Z 34022G27KT 11/03 A299 RMK A01 T01140029  RH  056%=      5-min Rain = 0
KBI1 111447Z 34024KT 11/03 A299 RMK A01 T01140028  RH  056%=      5-min Rain = 0
KBI1 111448Z 33022KT 11/03 A299 RMK A01 T01130028  RH  056%=      5-min Rain = 0
KBI1 111449Z 34019G24KT 11/03 A2991 RMK A01 T01130028  RH  056%=      5-min Rain = 0
KBI1 111450Z 35020KT 11/03 A2991 RMK A01 T01120028  RH  056%=      5-min Rain = 0
KBI1 111451Z 34018G23KT 11/03 A2991 RMK A01 T01120028  RH  056%=      5-min Rain = 0
KBI1 111452Z 34021G28KT 11/03 A2991 RMK A01 T01120027  RH  056%=      5-min Rain = 0
KBI1 111453Z 34022G29KT 11/03 A2991 RMK A01 T01110025  RH  055%=      5-min Rain = 0
KBI1 111454Z 34023G28KT 11/02 A2991 RMK A01 T01100024  RH  055%=      5-min Rain = 0
KBI1 111455Z 34020G25KT 11/02 A2991 RMK A01 T01100023  RH  055%=      5-min Rain = 0
KBI1 111456Z 34022G27KT 11/02 A2991 RMK A01 T01090023  RH  055%=      5-min Rain = 0
KBI1 111457Z 34020G27KT 11/02 A2992 RMK A01 T01090022  RH  055%=      5-min Rain = 0
KBI1 111458Z 34024G30KT 11/02 A2992 RMK A01 T01080021  RH  055%=      5-min Rain = 0
KBI1 111459Z 34024KT 11/02 A2992 RMK A01 T01080020  RH  054%=      5-min Rain = 0
KBI1 111500Z 34022G27KT 11/02 A2992 RMK A01 T01080019  RH  054%=      5-min Rain = 0
KBI1 111501Z 34017G22KT 11/02 A2992 RMK A01 T01070018  RH  054%=      5-min Rain = 0
KBI1 111502Z 34021KT 11/02 A2992 RMK A01 T01070018  RH  054%=      5-min Rain = 0
KBI1 111503Z 34016KT 11/02 A2992 RMK A01 T01070017  RH  054%=      5-min Rain = 0
KBI1 111504Z 34017G22KT 11/02 A2992 RMK A01 T01070017  RH  054%=      5-min Rain = 0
KBI1 111505Z 34024G32KT 11/02 A2993 RMK A01 T01060016  RH  054%=      5-min Rain = 0
KBI1 111506Z 35025G32KT 11/02 A2992 RMK A01 T01060015  RH  054%=      5-min Rain = 0
KBI1 111507Z 34022G29KT 11/02 A2993 RMK A01 T01050015  RH  054%=      5-min Rain = 0
KBI1 111508Z 35022KT 11/02 A2993 RMK A01 T01050016  RH  054%=      5-min Rain = 0
KBI1 111509Z 35019G24KT 11/02 A2993 RMK A01 T01050016  RH  054%=      5-min Rain = 0
KBI1 111510Z 35018G24KT 10/02 A2993 RMK A01 T01040016  RH  054%=      5-min Rain = 0
KBI1 111511Z 35022KT 10/02 A2993 RMK A01 T01040016  RH  054%=      5-min Rain = 0
KBI1 111512Z 34019KT 10/02 A2993 RMK A01 T01040017  RH  054%=      5-min Rain = 0
KBI1 111513Z 34020KT 10/02 A2993 RMK A01 T01040017  RH  055%=      5-min Rain = 0
KBI1 111514Z 34020KT 10/02 A2994 RMK A01 T01040017  RH  055%=      5-min Rain = 0
KBI1 111515Z 35020KT 10/02 A2994 RMK A01 T01040017  RH  055%=      5-min Rain = 0
KBI1 111516Z 34020G25KT 10/02 A2994 RMK A01 T01040017  RH  055%=      5-min Rain = 0
KBI1 111517Z 35019G24KT 10/02 A2994 RMK A01 T01040017  RH  055%=      5-min Rain = 0
KBI1 111518Z 35015G20KT 10/02 A2994 RMK A01 T01030017  RH  055%=      5-min Rain = 0
KBI1 111519Z 35020KT 10/02 A2994 RMK A01 T01030018  RH  055%=      5-min Rain = 0
KBI1 111520Z 35015G20KT 10/02 A2994 RMK A01 T01030018  RH  055%=      5-min Rain = 0
KBI1 111521Z 35015G21KT 10/02 A2994 RMK A01 T01030018  RH  056%=      5-min Rain = 0
KBI1 111522Z 35017KT 10/02 A2995 RMK A01 T01030018  RH  056%=      5-min Rain = 0
KBI1 111523Z 35016G23KT 10/02 A2995 RMK A01 T01030018  RH  056%=      5-min Rain = 0
KBI1 111524Z 35018G24KT 10/02 A2995 RMK A01 T01020019  RH  056%=      5-min Rain = 0
KBI1 111525Z 35019G24KT 10/02 A2995 RMK A01 T01030019  RH  056%=      5-min Rain = 0
KBI1 111526Z 35015KT 10/02 A2995 RMK A01 T01030019  RH  056%=      5-min Rain = 0
KBI1 111527Z 35016KT 10/02 A2995 RMK A01 T01030019  RH  056%=      5-min Rain = 0
KBI1 111528Z 35017G22KT 10/02 A2995 RMK A01 T01020019  RH  056%=      5-min Rain = 0
KBI1 111529Z 34018KT 10/02 A2995 RMK A01 T01030019  RH  056%=      5-min Rain = 0
KBI1 111530Z 34016KT 10/02 A2995 RMK A01 T01020019  RH  056%=      5-min Rain = 0
KBI1 111531Z 34019G24KT 10/02 A2996 RMK A01 T01020019  RH  056%=      5-min Rain = 0
KBI1 111532Z 34018G24KT 10/02 A2996 RMK A01 T01020017  RH  056%=      5-min Rain = 0
KBI1 111533Z 34023KT 10/02 A2996 RMK A01 T01000017  RH  056%=      5-min Rain = 0
KBI1 111534Z 33022G28KT 10/02 A2996 RMK A01 T00990016  RH  056%=      5-min Rain = 0
KBI1 111535Z 33024G29KT 10/02 A2996 RMK A01 T00980016  RH  056%=      5-min Rain = 0
KBI1 111536Z 33021G27KT 10/02 A2996 RMK A01 T00980016  RH  057%=      5-min Rain = 0
KBI1 111537Z 33019G26KT 10/02 A2996 RMK A01 T00980016  RH  057%=      5-min Rain = 0
KBI1 111538Z 33020G26KT 10/02 A2996 RMK A01 T00980016  RH  057%=      5-min Rain = 0
KBI1 111539Z 34024KT 10/02 A2996 RMK A01 T00980017  RH  057%=      5-min Rain = 0
KBI1 111540Z 34019KT 10/02 A2997 RMK A01 T00970017  RH  057%=      5-min Rain = 0
KBI1 111541Z 34021G31KT 10/02 A2997 RMK A01 T00980018  RH  057%=      5-min Rain = 0
KBI1 111542Z 34023G28KT 10/02 A2997 RMK A01 T00970017  RH  058%=      5-min Rain = 0
KBI1 111543Z 34022G28KT 10/02 A2998 RMK A01 T00960018  RH  058%=      5-min Rain = 0
KBI1 111544Z 34026G34KT 10/02 A2998 RMK A01 T00950018  RH  058%=      5-min Rain = 0
KBI1 111545Z 34026G33KT 09/02 A2998 RMK A01 T00940017  RH  058%=      5-min Rain = 0
KBI1 111546Z 35023G31KT 09/02 A2998 RMK A01 T00930016  RH  058%=      5-min Rain = 0
KBI1 111547Z 34024KT 09/02 A2999 RMK A01 T00910015  RH  059%=      5-min Rain = 0
KBI1 111548Z 35024KT 09/01 A2999 RMK A01 T00900013  RH  059%=      5-min Rain = 0
KBI1 111549Z 35023KT 09/01 A2999 RMK A01 T00890012  RH  058%=      5-min Rain = 0
KBI1 111550Z 34020G25KT 09/01 A2999 RMK A01 T00890013  RH  059%=      5-min Rain = 0
KBI1 111551Z 34018G23KT 09/01 A2999 RMK A01 T00890014  RH  060%=      5-min Rain = 0
KBI1 111552Z 34015G21KT 09/02 A2999 RMK A01 T00880015  RH  060%=      5-min Rain = 0
KBI1 111553Z 34020G25KT 09/02 A2999 RMK A01 T00870015  RH  060%=      5-min Rain = 0
KBI1 111554Z 34019G24KT 09/01 A2999 RMK A01 T00870013  RH  060%=      5-min Rain = 0
KBI1 111555Z 34021G27KT 09/01 A2999 RMK A01 T00870012  RH  059%=      5-min Rain = 0
KBI1 111556Z 34021G26KT 09/01 A2999 RMK A01 T00860011  RH  059%=      5-min Rain = 0
KBI1 111557Z 35019G26KT 09/01 A2999 RMK A01 T00860011  RH  059%=      5-min Rain = 0
KBI1 111558Z 34019G24KT 09/01 A2999 RMK A01 T00860011  RH  059%=      5-min Rain = 0
KBI1 111559Z 35023G29KT 09/01 A30 RMK A01 T00860010  RH  059%=      5-min Rain = 0
KBI1 111600Z 35026G32KT 09/01 A30 RMK A01 T00860009  RH  058%=      5-min Rain = 0
KBI1 111601Z 36024G29KT 09/01 A30 RMK A01 T00860008  RH  058%=      5-min Rain = 0
KBI1 111602Z 36024G29KT 09/01 A30 RMK A01 T00860008  RH  058%=      5-min Rain = 0
KBI1 111603Z 35019G26KT 09/01 A30 RMK A01 T00860008  RH  058%=      5-min Rain = 0
KBI1 111604Z 35023KT 09/01 A30 RMK A01 T00860008  RH  058%=      5-min Rain = 0
KBI1 111605Z 35019KT 09/01 A3001 RMK A01 T00850007  RH  058%=      5-min Rain = 0
KBI1 111606Z 35018KT 09/01 A3001 RMK A01 T00860009  RH  058%=      5-min Rain = 0
KBI1 111607Z 35024G30KT 09/01 A3001 RMK A01 T00850009  RH  058%=      5-min Rain = 0
KBI1 111608Z 35021G28KT 09/01 A3001 RMK A01 T00850008  RH  058%=      5-min Rain = 0
KBI1 111609Z 35021G26KT 08/01 A3001 RMK A01 T00840008  RH  058%=      5-min Rain = 0
KBI1 111610Z 35022G30KT 08/01 A3001 RMK A01 T00840007  RH  058%=      5-min Rain = 0
KBI1 111611Z 35026G31KT 08/01 A3001 RMK A01 T00840006  RH  058%=      5-min Rain = 0
KBI1 111612Z 36023KT 08/01 A3001 RMK A01 T00830007  RH  059%=      5-min Rain = 0
KBI1 111613Z 36022G27KT 08/01 A3002 RMK A01 T00820008  RH  059%=      5-min Rain = 0
KBI1 111614Z 35024KT 08/01 A3002 RMK A01 T00810009  RH  060%=      5-min Rain = 0
KBI1 111615Z 35019G25KT 08/01 A3002 RMK A01 T00810011  RH  061%=      5-min Rain = 0
KBI1 111616Z 36017G25KT 08/01 A3002 RMK A01 T00800011  RH  062%=      5-min Rain = 0
KBI1 111617Z 35022KT 08/01 A3002 RMK A01 T00790011  RH  062%=      5-min Rain = 0
KBI1 111618Z 35022G28KT 08/01 A3002 RMK A01 T00780010  RH  062%=      5-min Rain = 0
KBI1 111619Z 35023KT 08/01 A3003 RMK A01 T00780009  RH  062%=      5-min Rain = 0
KBI1 111620Z 35021G26KT 08/01 A3003 RMK A01 T00780010  RH  062%=      5-min Rain = 0
KBI1 111621Z 35022KT 08/01 A3003 RMK A01 T00770010  RH  062%=      5-min Rain = 0
KBI1 111622Z 35022KT 08/01 A3003 RMK A01 T00770011  RH  063%=      5-min Rain = 0
KBI1 111623Z 35017KT 08/01 A3003 RMK A01 T00760014  RH  065%=      5-min Rain = 0
KBI1 111624Z 35018KT 07/02 A3003 RMK A01 T00740015  RH  066%=      5-min Rain = 0
KBI1 111625Z 35017G23KT 07/02 A3003 RMK A01 T00740016  RH  066%=      5-min Rain = 0
KBI1 111626Z 35015KT 07/02 A3003 RMK A01 T00740015  RH  066%=      5-min Rain = 0
KBI1 111627Z 35015KT 07/01 A3003 RMK A01 T00740014  RH  066%=      5-min Rain = 0
KBI1 111628Z 35018KT 07/01 A3003 RMK A01 T00740014  RH  065%=      5-min Rain = 0
KBI1 111629Z 35016KT 08/01 A3004 RMK A01 T00750013  RH  065%=      5-min Rain = 0
KBI1 111630Z 34018KT 08/01 A3004 RMK A01 T00750012  RH  064%=      5-min Rain = 0
KBI1 111631Z 35016G23KT 08/01 A3004 RMK A01 T00750010  RH  063%=      5-min Rain = 0
KBI1 111632Z 35019KT 08/01 A3004 RMK A01 T00750009  RH  063%=      5-min Rain = 0
KBI1 111633Z 35019G24KT 08/01 A3004 RMK A01 T00760008  RH  062%=      5-min Rain = 0
KBI1 111634Z 34018KT 08/01 A3004 RMK A01 T00760008  RH  062%=      5-min Rain = 0
KBI1 111635Z 35018G25KT 08/01 A3004 RMK A01 T00760012  RH  064%=      5-min Rain = 0
KBI1 111636Z 34019G27KT 08/01 A3004 RMK A01 T00750011  RH  064%=      5-min Rain = 0
KBI1 111637Z 35020G25KT 08/01 A3004 RMK A01 T00750010  RH  064%=      5-min Rain = 0
KBI1 111638Z 35020G25KT 08/00 A3005 RMK A01 T00750004  RH  061%=      5-min Rain = 0
KBI1 111639Z 34016KT 08/00 A3005 RMK A01 T00750004  RH  061%=      5-min Rain = 0
KBI1 111640Z 35016KT 08/00 A3005 RMK A01 T00760004  RH  060%=      5-min Rain = 0
KBI1 111641Z 35016KT 08/00 A3005 RMK A01 T00770003  RH  059%=      5-min Rain = 0
KBI1 111642Z 35022G29KT 08/00 A3005 RMK A01 T00780000  RH  058%=      5-min Rain = 0
KBI1 111643Z 35020KT 08/M00 A3005 RMK A01 T00781002  RH  057%=      5-min Rain = 0
KBI1 111644Z 35020G28KT 08/M00 A3005 RMK A01 T00791003  RH  056%=      5-min Rain = 0
KBI1 111645Z 34016G22KT 08/M00 A3005 RMK A01 T00791003  RH  056%=      5-min Rain = 0
KBI1 111646Z 34017G22KT 08/M00 A3005 RMK A01 T00801002  RH  056%=      5-min Rain = 0
KBI1 111647Z 35019G25KT 08/M00 A3006 RMK A01 T00811002  RH  055%=      5-min Rain = 0
KBI1 111648Z 34021KT 08/M00 A3006 RMK A01 T00811004  RH  055%=      5-min Rain = 0
KBI1 111649Z 35023G29KT 08/M00 A3006 RMK A01 T00811004  RH  055%=      5-min Rain = 0
KBI1 111650Z 34022G28KT 08/M01 A3006 RMK A01 T00811005  RH  054%=      5-min Rain = 0
KBI1 111651Z 35021G27KT 08/M01 A3006 RMK A01 T00811005  RH  055%=      5-min Rain = 0
KBI1 111652Z 34019G26KT 08/M01 A3006 RMK A01 T00811005  RH  055%=      5-min Rain = 0
KBI1 111653Z 35021KT 08/M01 A3006 RMK A01 T00821006  RH  054%=      5-min Rain = 0
KBI1 111654Z 35025KT 08/M01 A3006 RMK A01 T00811008  RH  053%=      5-min Rain = 0
KBI1 111655Z 34022G27KT 08/M01 A3006 RMK A01 T00801009  RH  053%=      5-min Rain = 0
KBI1 111656Z 34021KT 08/M01 A3006 RMK A01 T00801008  RH  054%=      5-min Rain = 0
KBI1 111657Z 33015G20KT 08/M01 A3006 RMK A01 T00811008  RH  054%=      5-min Rain = 0
KBI1 111658Z 35019G24KT 08/M01 A3007 RMK A01 T00821007  RH  053%=      5-min Rain = 0
KBI1 111659Z 35020G26KT 08/M01 A3006 RMK A01 T00831010  RH  052%=      5-min Rain = 0
KBI1 111700Z 35019KT 08/M01 A3007 RMK A01 T00821011  RH  052%=      5-min Rain = 0
KBI1 111701Z 35021KT 08/M01 A3007 RMK A01 T00821010  RH  052%=      5-min Rain = 0
KBI1 111702Z 34017G24KT 08/M01 A3007 RMK A01 T00831010  RH  052%=      5-min Rain = 0
KBI1 111703Z 35017KT 08/M01 A3007 RMK A01 T00841010  RH  052%=      5-min Rain = 0
KBI1 111704Z 35021G26KT 09/M01 A3007 RMK A01 T00851010  RH  051%=      5-min Rain = 0
KBI1 111705Z 34020G25KT 08/M01 A3007 RMK A01 T00841011  RH  051%=      5-min Rain = 0
KBI1 111706Z 34021KT 08/M01 A3007 RMK A01 T00841010  RH  051%=      5-min Rain = 0
KBI1 111707Z 34016G25KT 09/M01 A3007 RMK A01 T00851009  RH  052%=      5-min Rain = 0
KBI1 111708Z 34020G26KT 09/M01 A3007 RMK A01 T00881007  RH  052%=      5-min Rain = 0
KBI1 111709Z 34022G27KT 09/M01 A3007 RMK A01 T00881006  RH  051%=      5-min Rain = 0
KBI1 111710Z 34019G24KT 09/M01 A3007 RMK A01 T00901005  RH  051%=      5-min Rain = 0
KBI1 111711Z 34015G21KT 09/M00 A3007 RMK A01 T00941001  RH  051%=      5-min Rain = 0
KBI1 111712Z 34018G24KT 10/M00 A3007 RMK A01 T00971001  RH  050%=      5-min Rain = 0
KBI1 111713Z 33019KT 10/M00 A3007 RMK A01 T00981001  RH  050%=      5-min Rain = 0
KBI1 111714Z 34019KT 10/00 A3007 RMK A01 T00990000  RH  050%=      5-min Rain = 0
KBI1 111715Z 34021G26KT 10/00 A3007 RMK A01 T01000000  RH  050%=      5-min Rain = 0
KBI1 111716Z 33024G30KT 10/00 A3007 RMK A01 T01010002  RH  050%=      5-min Rain = 0
KBI1 111717Z 33022G29KT 10/00 A3007 RMK A01 T01000001  RH  050%=      5-min Rain = 0
KBI1 111718Z 33026G33KT 10/00 A3007 RMK A01 T00980000  RH  050%=      5-min Rain = 0
KBI1 111719Z 33023G28KT 10/M00 A3007 RMK A01 T00961001  RH  051%=      5-min Rain = 0
KBI1 111720Z 33026G35KT 09/M00 A3007 RMK A01 T00941001  RH  051%=      5-min Rain = 0
KBI1 111721Z 33028G34KT 09/M00 A3007 RMK A01 T00921002  RH  052%=      5-min Rain = 0
KBI1 111722Z 33026G31KT 09/M00 A3008 RMK A01 T00891003  RH  052%=      5-min Rain = 0
KBI1 111723Z 33024G31KT 09/M00 A3008 RMK A01 T00891004  RH  052%=      5-min Rain = 0
KBI1 111724Z 33026G33KT 09/M01 A3008 RMK A01 T00891011  RH  049%=      5-min Rain = 0
KBI1 111725Z 33026G33KT 09/M02 A3008 RMK A01 T00881019  RH  047%=      5-min Rain = 0
KBI1 111726Z 34023G28KT 09/M02 A3008 RMK A01 T00871020  RH  047%=      5-min Rain = 0
KBI1 111727Z 34022G33KT 09/M02 A3009 RMK A01 T00881019  RH  047%=      5-min Rain = 0
KBI1 111728Z 34023G31KT 09/M02 A3009 RMK A01 T00891021  RH  046%=      5-min Rain = 0
KBI1 111729Z 34022G28KT 09/M02 A3009 RMK A01 T00881023  RH  046%=      5-min Rain = 0
KBI1 111730Z 35025G31KT 09/M02 A3009 RMK A01 T00881024  RH  045%=      5-min Rain = 0
KBI1 111731Z 34026G31KT 09/M02 A3009 RMK A01 T00871024  RH  046%=      5-min Rain = 0
KBI1 111732Z 34026G35KT 09/M02 A3009 RMK A01 T00871024  RH  046%=      5-min Rain = 0
KBI1 111733Z 34026KT 09/M02 A3009 RMK A01 T00871023  RH  046%=      5-min Rain = 0
KBI1 111734Z 34028KT 09/M02 A3009 RMK A01 T00871023  RH  046%=      5-min Rain = 0
KBI1 111735Z 33026G32KT 09/M02 A3009 RMK A01 T00871022  RH  046%=      5-min Rain = 0
KBI1 111736Z 34024G32KT 09/M02 A3009 RMK A01 T00881022  RH  046%=      5-min Rain = 0
KBI1 111737Z 34019G25KT 09/M02 A3009 RMK A01 T00881022  RH  046%=      5-min Rain = 0
KBI1 111738Z 34020G26KT 09/M02 A3009 RMK A01 T00881021  RH  046%=      5-min Rain = 0
KBI1 111739Z 34020KT 09/M02 A3009 RMK A01 T00891021  RH  046%=      5-min Rain = 0
KBI1 111740Z 34024KT 09/M02 A301 RMK A01 T00871022  RH  046%=      5-min Rain = 0
KBI1 111741Z 33021G29KT 09/M02 A301 RMK A01 T00861021  RH  047%=      5-min Rain = 0
KBI1 111742Z 33026KT 09/M02 A3009 RMK A01 T00871021  RH  047%=      5-min Rain = 0
KBI1 111743Z 34021KT 09/M02 A301 RMK A01 T00871021  RH  047%=      5-min Rain = 0
KBI1 111744Z 33022G28KT 09/M02 A3009 RMK A01 T00871022  RH  046%=      5-min Rain = 0
KBI1 111745Z 33022KT 09/M02 A3009 RMK A01 T00871023  RH  046%=      5-min Rain = 0
KBI1 111746Z 34023G28KT 09/M02 A3009 RMK A01 T00861023  RH  046%=      5-min Rain = 0
KBI1 111747Z 34022G28KT 09/M02 A301 RMK A01 T00871024  RH  046%=      5-min Rain = 0
KBI1 111748Z 34024KT 09/M02 A301 RMK A01 T00871023  RH  046%=      5-min Rain = 0
KBI1 111749Z 34022G27KT 09/M02 A301 RMK A01 T00861024  RH  046%=      5-min Rain = 0
KBI1 111750Z 34019KT 09/M02 A301 RMK A01 T00871022  RH  046%=      5-min Rain = 0
KBI1 111751Z 33023G30KT 09/M02 A301 RMK A01 T00901020  RH  046%=      5-min Rain = 0
KBI1 111752Z 34022KT 09/M02 A301 RMK A01 T00891021  RH  046%=      5-min Rain = 0
KBI1 111753Z 34022G28KT 09/M02 A301 RMK A01 T00881020  RH  047%=      5-min Rain = 0
KBI1 111754Z 34025KT 09/M02 A3009 RMK A01 T00881020  RH  047%=      5-min Rain = 0
KBI1 111755Z 34023KT 09/M02 A301 RMK A01 T00861020  RH  047%=      5-min Rain = 0
KBI1 111756Z 33023G28KT 09/M02 A301 RMK A01 T00851020  RH  048%=      5-min Rain = 0
KBI1 111757Z 34022G28KT 08/M02 A301 RMK A01 T00841019  RH  048%=      5-min Rain = 0
KBI1 111758Z 34019KT 08/M02 A301 RMK A01 T00831018  RH  049%=      5-min Rain = 0
KBI1 111759Z 33022KT 08/M02 A301 RMK A01 T00841018  RH  049%=      5-min Rain = 0
KBI1 111800Z 33020G25KT 09/M02 A301 RMK A01 T00851018  RH  049%=      5-min Rain = 0
KBI1 111801Z 34017KT 09/M02 A301 RMK A01 T00851017  RH  049%=      5-min Rain = 0
KBI1 111802Z 33020KT 09/M02 A301 RMK A01 T00861016  RH  049%=      5-min Rain = 0
KBI1 111803Z 34018G23KT 09/M02 A301 RMK A01 T00861016  RH  049%=      5-min Rain = 0
KBI1 111804Z 33022G27KT 09/M02 A301 RMK A01 T00861015  RH  049%=      5-min Rain = 0
KBI1 111805Z 33021KT 09/M01 A301 RMK A01 T00861014  RH  049%=      5-min Rain = 0
KBI1 111806Z 33020G25KT 09/M01 A301 RMK A01 T00871013  RH  049%=      5-min Rain = 0
KBI1 111807Z 33021KT 09/M01 A301 RMK A01 T00881013  RH  049%=      5-min Rain = 0
KBI1 111808Z 33018KT 09/M01 A301 RMK A01 T00871014  RH  049%=      5-min Rain = 0
KBI1 111809Z 32020KT 09/M01 A301 RMK A01 T00881013  RH  049%=      5-min Rain = 0
KBI1 111810Z 33016G23KT 09/M01 A301 RMK A01 T00891013  RH  049%=      5-min Rain = 0
KBI1 111811Z 33018G26KT 09/M01 A301 RMK A01 T00891012  RH  049%=      5-min Rain = 0
KBI1 111812Z 33017KT 09/M01 A301 RMK A01 T00901012  RH  049%=      5-min Rain = 0
KBI1 111813Z 33017KT 09/M01 A301 RMK A01 T00901012  RH  049%=      5-min Rain = 0
KBI1 111814Z 32014G19KT 09/M01 A301 RMK A01 T00891011  RH  049%=      5-min Rain = 0
KBI1 111815Z 32020G25KT 09/M01 A301 RMK A01 T00911011  RH  049%=      5-min Rain = 0
KBI1 111816Z 33017G24KT 09/M01 A3011 RMK A01 T00901013  RH  049%=      5-min Rain = 0
KBI1 111817Z 33018G24KT 09/M01 A3011 RMK A01 T00891013  RH  049%=      5-min Rain = 0
KBI1 111818Z 33020G25KT 09/M02 A301 RMK A01 T00891015  RH  048%=      5-min Rain = 0
KBI1 111819Z 31018KT 09/M02 A3011 RMK A01 T00891015  RH  048%=      5-min Rain = 0
KBI1 111820Z 32016G23KT 09/M02 A3011 RMK A01 T00901020  RH  046%=      5-min Rain = 0
KBI1 111821Z 32022G29KT 09/M02 A3011 RMK A01 T00921021  RH  045%=      5-min Rain = 0
KBI1 111822Z 33020KT 09/M03 A3011 RMK A01 T00911028  RH  043%=      5-min Rain = 0
KBI1 111823Z 33018KT 09/M03 A3011 RMK A01 T00891027  RH  044%=      5-min Rain = 0
KBI1 111824Z 33020G25KT 09/M02 A3011 RMK A01 T00891024  RH  045%=      5-min Rain = 0
KBI1 111825Z 33023KT 09/M03 A3011 RMK A01 T00901025  RH  044%=      5-min Rain = 0
KBI1 111826Z 32020KT 09/M03 A3011 RMK A01 T00891026  RH  044%=      5-min Rain = 0
KBI1 111827Z 33019G25KT 09/M03 A3011 RMK A01 T00891027  RH  044%=      5-min Rain = 0
KBI1 111828Z 33020G26KT 09/M03 A3011 RMK A01 T00891028  RH  043%=      5-min Rain = 0
KBI1 111829Z 34019KT 09/M03 A3011 RMK A01 T00921028  RH  043%=      5-min Rain = 0
KBI1 111830Z 33021KT 09/M03 A3011 RMK A01 T00931030  RH  042%=      5-min Rain = 0
KBI1 111831Z 32025G30KT 09/M03 A3011 RMK A01 T00911033  RH  041%=      5-min Rain = 0
KBI1 111832Z 33023G28KT 09/M03 A3012 RMK A01 T00911033  RH  041%=      5-min Rain = 0
KBI1 111833Z 34022G28KT 09/M03 A3012 RMK A01 T00921031  RH  042%=      5-min Rain = 0
KBI1 111834Z 33021G26KT 09/M03 A3012 RMK A01 T00941031  RH  041%=      5-min Rain = 0
KBI1 111835Z 33021G28KT 09/M03 A3012 RMK A01 T00941032  RH  041%=      5-min Rain = 0
KBI1 111836Z 33018G26KT 09/M03 A3012 RMK A01 T00931033  RH  041%=      5-min Rain = 0
KBI1 111837Z 33021KT 09/M03 A3012 RMK A01 T00931034  RH  041%=      5-min Rain = 0
KBI1 111838Z 33018G23KT 09/M03 A3012 RMK A01 T00921034  RH  041%=      5-min Rain = 0
KBI1 111839Z 33025KT 09/M04 A3012 RMK A01 T00911036  RH  041%=      5-min Rain = 0
KBI1 111840Z 32021KT 09/M04 A3012 RMK A01 T00881039  RH  040%=      5-min Rain = 0
KBI1 111841Z 32024G29KT 09/M04 A3012 RMK A01 T00881039  RH  041%=      5-min Rain = 0
KBI1 111842Z 33022G28KT 09/M04 A3012 RMK A01 T00871040  RH  040%=      5-min Rain = 0
KBI1 111843Z 33022KT 09/M04 A3012 RMK A01 T00871041  RH  040%=      5-min Rain = 0
KBI1 111844Z 33019G24KT 09/M04 A3012 RMK A01 T00861042  RH  040%=      5-min Rain = 0
KBI1 111845Z 33018KT 09/M04 A3012 RMK A01 T00881040  RH  040%=      5-min Rain = 0
KBI1 111846Z 34020G28KT 09/M04 A3012 RMK A01 T00911039  RH  040%=      5-min Rain = 0
KBI1 111847Z 34020G27KT 10/M04 A3012 RMK A01 T00951038  RH  039%=      5-min Rain = 0
KBI1 111848Z 33023G29KT 10/M04 A3012 RMK A01 T00971039  RH  038%=      5-min Rain = 0
KBI1 111849Z 33025KT 10/M04 A3012 RMK A01 T00961042  RH  037%=      5-min Rain = 0
KBI1 111850Z 34026G31KT 10/M04 A3012 RMK A01 T00961043  RH  037%=      5-min Rain = 0
KBI1 111851Z 34024G30KT 10/M04 A3012 RMK A01 T00961043  RH  037%=      5-min Rain = 0
KBI1 111852Z 34023G30KT 10/M04 A3012 RMK A01 T00951043  RH  037%=      5-min Rain = 0
KBI1 111853Z 34023G28KT 10/M04 A3012 RMK A01 T00951043  RH  037%=      5-min Rain = 0
KBI1 111854Z 35019G24KT 10/M04 A3012 RMK A01 T00971042  RH  037%=      5-min Rain = 0
KBI1 111855Z 35022G29KT 10/M04 A3012 RMK A01 T00991042  RH  037%=      5-min Rain = 0
KBI1 111856Z 34022KT 10/M04 A3012 RMK A01 T00991043  RH  037%=      5-min Rain = 0
KBI1 111857Z 34021KT 10/M04 A3012 RMK A01 T00991043  RH  037%=      5-min Rain = 0
KBI1 111858Z 34019KT 10/M04 A3012 RMK A01 T00981043  RH  037%=      5-min Rain = 0
KBI1 111859Z 33018G24KT 10/M04 A3012 RMK A01 T00991043  RH  036%=      5-min Rain = 0
KBI1 111900Z 34019KT 10/M04 A3011 RMK A01 T00991044  RH  036%=      5-min Rain = 0
KBI1 111901Z 35016KT 10/M04 A3012 RMK A01 T01001042  RH  036%=      5-min Rain = 0
KBI1 111902Z 33016KT 10/M04 A3012 RMK A01 T01021042  RH  036%=      5-min Rain = 0
KBI1 111903Z 32019G25KT 10/M04 A3012 RMK A01 T01011039  RH  037%=      5-min Rain = 0
KBI1 111904Z 31019G24KT 10/M04 A3012 RMK A01 T00971039  RH  038%=      5-min Rain = 0
KBI1 111905Z 31022KT 09/M04 A3011 RMK A01 T00931040  RH  039%=      5-min Rain = 0
KBI1 111906Z 32023G29KT 09/M04 A3012 RMK A01 T00921039  RH  039%=      5-min Rain = 0
KBI1 111907Z 32021G26KT 09/M04 A3012 RMK A01 T00931039  RH  039%=      5-min Rain = 0
KBI1 111908Z 32018G23KT 09/M04 A3012 RMK A01 T00941039  RH  039%=      5-min Rain = 0
KBI1 111909Z 32021KT 10/M04 A3012 RMK A01 T00961039  RH  038%=      5-min Rain = 0
KBI1 111910Z 33019KT 10/M04 A3012 RMK A01 T00951041  RH  038%=      5-min Rain = 0
KBI1 111911Z 33022G29KT 10/M04 A3012 RMK A01 T00961041  RH  038%=      5-min Rain = 0
KBI1 111912Z 32019G24KT 09/M04 A3012 RMK A01 T00941043  RH  038%=      5-min Rain = 0
KBI1 111913Z 31022KT 09/M04 A3012 RMK A01 T00921044  RH  038%=      5-min Rain = 0
KBI1 111914Z 31021G26KT 09/M05 A3012 RMK A01 T00901047  RH  038%=      5-min Rain = 0
KBI1 111915Z 32022G27KT 09/M05 A3012 RMK A01 T00891047  RH  038%=      5-min Rain = 0
KBI1 111916Z 33022KT 09/M05 A3012 RMK A01 T00911045  RH  038%=      5-min Rain = 0
KBI1 111917Z 33020G25KT 09/M05 A3012 RMK A01 T00931046  RH  037%=      5-min Rain = 0
KBI1 111918Z 32018KT 10/M05 A3012 RMK A01 T00951045  RH  037%=      5-min Rain = 0
KBI1 111919Z 32018G23KT 10/M05 A3012 RMK A01 T00961046  RH  036%=      5-min Rain = 0
KBI1 111920Z 32021G27KT 10/M05 A3012 RMK A01 T00971048  RH  036%=      5-min Rain = 0
KBI1 111921Z 32020KT 10/M05 A3012 RMK A01 T00961049  RH  035%=      5-min Rain = 0
KBI1 111922Z 32019G24KT 10/M05 A3012 RMK A01 T00951049  RH  036%=      5-min Rain = 0
KBI1 111923Z 31020G25KT 10/M05 A3012 RMK A01 T00961050  RH  035%=      5-min Rain = 0
KBI1 111924Z 31019G26KT 09/M05 A3012 RMK A01 T00941052  RH  035%=      5-min Rain = 0
KBI1 111925Z 33021KT 10/M05 A3012 RMK A01 T00951051  RH  035%=      5-min Rain = 0
KBI1 111926Z 34019KT 09/M05 A3013 RMK A01 T00941053  RH  035%=      5-min Rain = 0
KBI1 111927Z 33018KT 09/M06 A3013 RMK A01 T00931055  RH  035%=      5-min Rain = 0
KBI1 111928Z 32018G25KT 09/M06 A3012 RMK A01 T00911056  RH  035%=      5-min Rain = 0
KBI1 111929Z 32019KT 09/M06 A3012 RMK A01 T00881058  RH  035%=      5-min Rain = 0
KBI1 111930Z 33017G22KT 09/M06 A3013 RMK A01 T00881057  RH  035%=      5-min Rain = 0
KBI1 111931Z 33017KT 09/M06 A3013 RMK A01 T00891057  RH  035%=      5-min Rain = 0
KBI1 111932Z 32018KT 09/M06 A3013 RMK A01 T00881058  RH  035%=      5-min Rain = 0
KBI1 111933Z 32014KT 09/M06 A3013 RMK A01 T00881057  RH  035%=      5-min Rain = 0
KBI1 111934Z 32017G22KT 09/M06 A3013 RMK A01 T00911058  RH  034%=      5-min Rain = 0
KBI1 111935Z 32017KT 09/M06 A3013 RMK A01 T00931057  RH  034%=      5-min Rain = 0
KBI1 111936Z 32017KT 09/M06 A3013 RMK A01 T00941059  RH  034%=      5-min Rain = 0
KBI1 111937Z 32021G29KT 10/M06 A3013 RMK A01 T00951059  RH  033%=      5-min Rain = 0
KBI1 111938Z 33023G29KT 09/M06 A3013 RMK A01 T00941061  RH  033%=      5-min Rain = 0
KBI1 111939Z 34022KT 09/M06 A3013 RMK A01 T00941061  RH  033%=      5-min Rain = 0
KBI1 111940Z 33021KT 10/M06 A3013 RMK A01 T00951061  RH  033%=      5-min Rain = 0
KBI1 111941Z 33023G28KT 10/M06 A3013 RMK A01 T00961060  RH  033%=      5-min Rain = 0
KBI1 111942Z 33022KT 10/M06 A3012 RMK A01 T00971060  RH  033%=      5-min Rain = 0
KBI1 111943Z 33020G27KT 10/M06 A3013 RMK A01 T00971059  RH  033%=      5-min Rain = 0
KBI1 111944Z 33023G31KT 10/M06 A3012 RMK A01 T00991059  RH  032%=      5-min Rain = 0
KBI1 111945Z 33024KT 10/M06 A3013 RMK A01 T00981062  RH  032%=      5-min Rain = 0
KBI1 111946Z 34023G28KT 10/M06 A3013 RMK A01 T00981062  RH  032%=      5-min Rain = 0
KBI1 111947Z 34020G25KT 10/M06 A3013 RMK A01 T00991062  RH  032%=      5-min Rain = 0
KBI1 111948Z 34021G27KT 10/M06 A3013 RMK A01 T01001061  RH  031%=      5-min Rain = 0
KBI1 111949Z 34021G26KT 10/M06 A3013 RMK A01 T01011062  RH  031%=      5-min Rain = 0
KBI1 111950Z 34018G23KT 10/M06 A3013 RMK A01 T01011062  RH  031%=      5-min Rain = 0
KBI1 111951Z 33017G22KT 10/M06 A3013 RMK A01 T01041060  RH  031%=      5-min Rain = 0
KBI1 111952Z 32020KT 11/M06 A3013 RMK A01 T01061063  RH  030%=      5-min Rain = 0
KBI1 111953Z 32020KT 10/M07 A3013 RMK A01 T01031065  RH  030%=      5-min Rain = 0
KBI1 111954Z 33024G29KT 10/M07 A3013 RMK A01 T01021066  RH  030%=      5-min Rain = 0
KBI1 111955Z 33021KT 10/M07 A3013 RMK A01 T01001067  RH  030%=      5-min Rain = 0
KBI1 111956Z 34018G23KT 10/M07 A3013 RMK A01 T01001065  RH  031%=      5-min Rain = 0
KBI1 111957Z 33019G24KT 10/M06 A3013 RMK A01 T01041062  RH  030%=      5-min Rain = 0
KBI1 111958Z 33023KT 11/M06 A3013 RMK A01 T01051063  RH  030%=      5-min Rain = 0
KBI1 111959Z 32022G27KT 10/M07 A3013 RMK A01 T01021065  RH  030%=      5-min Rain = 0
KBI1 112000Z 33021G27KT 10/M06 A3013 RMK A01 T01011064  RH  031%=      5-min Rain = 0
KBI1 112001Z 32020KT 10/M06 A3013 RMK A01 T01011064  RH  031%=      5-min Rain = 0
KBI1 112002Z 33018G24KT 10/M06 A3013 RMK A01 T01001062  RH  031%=      5-min Rain = 0
KBI1 112003Z 33021KT 10/M06 A3013 RMK A01 T01021062  RH  031%=      5-min Rain = 0
KBI1 112004Z 33022G27KT 10/M06 A3013 RMK A01 T01031061  RH  031%=      5-min Rain = 0
KBI1 112005Z 34021G28KT 10/M06 A3013 RMK A01 T01041063  RH  030%=      5-min Rain = 0
KBI1 112006Z 32016G22KT 11/M06 A3013 RMK A01 T01051061  RH  030%=      5-min Rain = 0
KBI1 112007Z 33017KT 11/M06 A3013 RMK A01 T01061060  RH  030%=      5-min Rain = 0
KBI1 112008Z 33017KT 11/M06 A3013 RMK A01 T01051060  RH  031%=      5-min Rain = 0
KBI1 112009Z 32018KT 11/M06 A3013 RMK A01 T01051060  RH  031%=      5-min Rain = 0
KBI1 112010Z 33022G29KT 10/M06 A3013 RMK A01 T01041060  RH  031%=      5-min Rain = 0
KBI1 112011Z 32024KT 10/M06 A3013 RMK A01 T01021062  RH  031%=      5-min Rain = 0
KBI1 112012Z 32019G24KT 10/M06 A3013 RMK A01 T01001063  RH  031%=      5-min Rain = 0
KBI1 112013Z 33021KT 10/M06 A3013 RMK A01 T01001062  RH  031%=      5-min Rain = 0
KBI1 112014Z 33025G30KT 10/M06 A3013 RMK A01 T01011062  RH  031%=      5-min Rain = 0
KBI1 112015Z 32020G26KT 10/M06 A3013 RMK A01 T01001064  RH  031%=      5-min Rain = 0
KBI1 112016Z 32014G22KT 10/M06 A3013 RMK A01 T01001064  RH  031%=      5-min Rain = 0
KBI1 112017Z 32019G24KT 10/M07 A3013 RMK A01 T00991065  RH  031%=      5-min Rain = 0
KBI1 112018Z 34019KT 10/M06 A3013 RMK A01 T01011063  RH  031%=      5-min Rain = 0
KBI1 112019Z 33019KT 10/M06 A3013 RMK A01 T01031063  RH  030%=      5-min Rain = 0
KBI1 112020Z 34021KT 10/M06 A3013 RMK A01 T01041063  RH  030%=      5-min Rain = 0
KBI1 112021Z 34020KT 11/M06 A3013 RMK A01 T01061064  RH  030%=      5-min Rain = 0
KBI1 112022Z 33019G25KT 11/M07 A3013 RMK A01 T01051066  RH  029%=      5-min Rain = 0
KBI1 112023Z 33024G29KT 11/M07 A3013 RMK A01 T01051067  RH  029%=      5-min Rain = 0
KBI1 112024Z 33023KT 10/M07 A3013 RMK A01 T01041069  RH  029%=      5-min Rain = 0
KBI1 112025Z 33023KT 10/M07 A3013 RMK A01 T01031069  RH  029%=      5-min Rain = 0
KBI1 112026Z 34019KT 10/M07 A3013 RMK A01 T01011068  RH  030%=      5-min Rain = 0
KBI1 112027Z 34018G23KT 10/M07 A3013 RMK A01 T01031067  RH  030%=      5-min Rain = 0
KBI1 112028Z 34021KT 11/M07 A3013 RMK A01 T01051066  RH  029%=      5-min Rain = 0
KBI1 112029Z 32018G25KT 10/M07 A3013 RMK A01 T01041068  RH  029%=      5-min Rain = 0
KBI1 112030Z 32021KT 10/M07 A3013 RMK A01 T01031070  RH  029%=      5-min Rain = 0
KBI1 112031Z 34022KT 10/M07 A3013 RMK A01 T01031069  RH  029%=      5-min Rain = 0
KBI1 112032Z 33020G25KT 11/M07 A3013 RMK A01 T01051067  RH  029%=      5-min Rain = 0
KBI1 112033Z 34020G25KT 11/M07 A3013 RMK A01 T01071067  RH  029%=      5-min Rain = 0
KBI1 112034Z 33017G23KT 11/M07 A3013 RMK A01 T01071068  RH  029%=      5-min Rain = 0
KBI1 112035Z 32020G26KT 11/M07 A3013 RMK A01 T01091068  RH  028%=      5-min Rain = 0
KBI1 112036Z 33017G23KT 11/M07 A3014 RMK A01 T01081070  RH  028%=      5-min Rain = 0
KBI1 112037Z 33017G22KT 11/M07 A3014 RMK A01 T01091069  RH  028%=      5-min Rain = 0
KBI1 112038Z 34017G22KT 11/M07 A3014 RMK A01 T01101068  RH  028%=      5-min Rain = 0
KBI1 112039Z 33015G20KT 11/M07 A3014 RMK A01 T01101068  RH  028%=      5-min Rain = 0
KBI1 112040Z 33023G30KT 11/M07 A3014 RMK A01 T01101068  RH  028%=      5-min Rain = 0
KBI1 112041Z 34026G31KT 11/M07 A3014 RMK A01 T01101073  RH  027%=      5-min Rain = 0
KBI1 112042Z 34021KT 11/M07 A3014 RMK A01 T01091073  RH  027%=      5-min Rain = 0
KBI1 112043Z 33024G29KT 11/M07 A3014 RMK A01 T01101072  RH  027%=      5-min Rain = 0
KBI1 112044Z 33020G26KT 11/M07 A3014 RMK A01 T01101073  RH  027%=      5-min Rain = 0
KBI1 112045Z 33025G31KT 11/M07 A3013 RMK A01 T01111072  RH  027%=      5-min Rain = 0
KBI1 112046Z 33023G29KT 11/M07 A3014 RMK A01 T01111072  RH  027%=      5-min Rain = 0
KBI1 112047Z 32022G29KT 11/M07 A3014 RMK A01 T01111072  RH  027%=      5-min Rain = 0
KBI1 112048Z 32021KT 11/M07 A3014 RMK A01 T01111074  RH  027%=      5-min Rain = 0
KBI1 112049Z 34019G26KT 11/M07 A3014 RMK A01 T01111074  RH  027%=      5-min Rain = 0
KBI1 112050Z 33020KT 11/M08 A3014 RMK A01 T01111075  RH  026%=      5-min Rain = 0
KBI1 112051Z 33020G26KT 11/M07 A3014 RMK A01 T01111074  RH  027%=      5-min Rain = 0
KBI1 112052Z 33024KT 11/M07 A3014 RMK A01 T01131071  RH  027%=      5-min Rain = 0
KBI1 112053Z 33020KT 11/M07 A3014 RMK A01 T01121073  RH  027%=      5-min Rain = 0
KBI1 112054Z 33018KT 11/M07 A3014 RMK A01 T01091073  RH  027%=      5-min Rain = 0
KBI1 112055Z 34013G20KT 11/M07 A3014 RMK A01 T01111070  RH  027%=      5-min Rain = 0
KBI1 112056Z 34020G29KT 12/M07 A3014 RMK A01 T01151072  RH  026%=      5-min Rain = 0
KBI1 112057Z 33021KT 11/M08 A3014 RMK A01 T01131075  RH  026%=      5-min Rain = 0
KBI1 112058Z 33023KT 11/M08 A3014 RMK A01 T01131075  RH  026%=      5-min Rain = 0
KBI1 112059Z 33021KT 11/M08 A3014 RMK A01 T01131075  RH  026%=      5-min Rain = 0
KBI1 112100Z 33022G27KT 11/M08 A3014 RMK A01 T01131075  RH  026%=      5-min Rain = 0
KBI1 112101Z 33023G28KT 11/M08 A3015 RMK A01 T01131075  RH  026%=      5-min Rain = 0
KBI1 112102Z 33020G27KT 11/M08 A3015 RMK A01 T01111076  RH  026%=      5-min Rain = 0
KBI1 112103Z 33025G30KT 11/M08 A3015 RMK A01 T01111077  RH  026%=      5-min Rain = 0
KBI1 112104Z 33025G31KT 11/M08 A3015 RMK A01 T01101080  RH  026%=      5-min Rain = 0
KBI1 112105Z 32024G34KT 11/M08 A3015 RMK A01 T01081081  RH  026%=      5-min Rain = 0
KBI1 112106Z 33020G26KT 11/M08 A3015 RMK A01 T01071081  RH  026%=      5-min Rain = 0
KBI1 112107Z 33021KT 11/M08 A3015 RMK A01 T01081080  RH  026%=      5-min Rain = 0
KBI1 112108Z 34019KT 11/M08 A3015 RMK A01 T01081080  RH  026%=      5-min Rain = 0
KBI1 112109Z 33019G24KT 11/M08 A3015 RMK A01 T01071080  RH  026%=      5-min Rain = 0
KBI1 112110Z 33022KT 11/M08 A3015 RMK A01 T01071082  RH  026%=      5-min Rain = 0
KBI1 112111Z 33022KT 11/M08 A3015 RMK A01 T01061084  RH  025%=      5-min Rain = 0
KBI1 112112Z 34016G22KT 11/M08 A3015 RMK A01 T01051083  RH  026%=      5-min Rain = 0
KBI1 112113Z 33018G25KT 11/M08 A3015 RMK A01 T01071079  RH  026%=      5-min Rain = 0
KBI1 112114Z 33020G26KT 11/M08 A3015 RMK A01 T01081081  RH  026%=      5-min Rain = 0
KBI1 112115Z 33020KT 11/M08 A3015 RMK A01 T01071081  RH  026%=      5-min Rain = 0
KBI1 112116Z 33021G26KT 11/M08 A3016 RMK A01 T01071081  RH  026%=      5-min Rain = 0
KBI1 112117Z 34021KT 11/M08 A3016 RMK A01 T01071081  RH  026%=      5-min Rain = 0
KBI1 112118Z 34020KT 11/M08 A3016 RMK A01 T01061082  RH  026%=      5-min Rain = 0
KBI1 112119Z 33020G25KT 11/M08 A3016 RMK A01 T01051083  RH  026%=      5-min Rain = 0
KBI1 112120Z 33018KT 11/M08 A3016 RMK A01 T01051083  RH  026%=      5-min Rain = 0
KBI1 112121Z 33015G21KT 11/M08 A3016 RMK A01 T01051081  RH  026%=      5-min Rain = 0
KBI1 112122Z 33019G24KT 11/M08 A3016 RMK A01 T01071081  RH  026%=      5-min Rain = 0
KBI1 112123Z 32016KT 11/M08 A3016 RMK A01 T01071083  RH  026%=      5-min Rain = 0
KBI1 112124Z 32018G26KT 11/M08 A3016 RMK A01 T01071082  RH  026%=      5-min Rain = 0
KBI1 112125Z 33019G24KT 11/M08 A3016 RMK A01 T01081084  RH  025%=      5-min Rain = 0
KBI1 112126Z 33017KT 11/M08 A3016 RMK A01 T01071084  RH  025%=      5-min Rain = 0
KBI1 112127Z 33020G25KT 11/M08 A3016 RMK A01 T01081084  RH  025%=      5-min Rain = 0
KBI1 112128Z 33020G25KT 11/M09 A3016 RMK A01 T01081085  RH  025%=      5-min Rain = 0
KBI1 112129Z 34021G27KT 11/M09 A3016 RMK A01 T01081086  RH  025%=      5-min Rain = 0
KBI1 112130Z 35018G24KT 11/M09 A3017 RMK A01 T01091087  RH  024%=      5-min Rain = 0
KBI1 112131Z 34021KT 11/M09 A3017 RMK A01 T01081089  RH  024%=      5-min Rain = 0
KBI1 112132Z 34021KT 11/M09 A3016 RMK A01 T01071092  RH  024%=      5-min Rain = 0
KBI1 112133Z 34018G23KT 11/M09 A3017 RMK A01 T01061091  RH  024%=      5-min Rain = 0
KBI1 112134Z 34020G27KT 11/M09 A3017 RMK A01 T01061090  RH  024%=      5-min Rain = 0
KBI1 112135Z 34019G24KT 11/M09 A3017 RMK A01 T01051090  RH  024%=      5-min Rain = 0
KBI1 112136Z 34020KT 10/M09 A3017 RMK A01 T01041089  RH  025%=      5-min Rain = 0
KBI1 112137Z 33021KT 11/M09 A3017 RMK A01 T01051088  RH  025%=      5-min Rain = 0
KBI1 112138Z 33022G27KT 11/M09 A3017 RMK A01 T01071087  RH  025%=      5-min Rain = 0
KBI1 112139Z 33018KT 11/M09 A3017 RMK A01 T01091087  RH  024%=      5-min Rain = 0
KBI1 112140Z 33020G25KT 11/M09 A3017 RMK A01 T01111087  RH  024%=      5-min Rain = 0
KBI1 112141Z 33023KT 11/M09 A3017 RMK A01 T01111089  RH  024%=      5-min Rain = 0
KBI1 112142Z 33021G26KT 11/M09 A3017 RMK A01 T01101090  RH  024%=      5-min Rain = 0
KBI1 112143Z 34020G25KT 11/M09 A3017 RMK A01 T01091090  RH  024%=      5-min Rain = 0
KBI1 112144Z 34020KT 11/M09 A3017 RMK A01 T01101089  RH  024%=      5-min Rain = 0
KBI1 112145Z 34019G24KT 11/M09 A3017 RMK A01 T01101090  RH  024%=      5-min Rain = 0
KBI1 112146Z 34018KT 11/M09 A3017 RMK A01 T01111089  RH  024%=      5-min Rain = 0
KBI1 112147Z 34020KT 11/M09 A3017 RMK A01 T01121089  RH  024%=      5-min Rain = 0
KBI1 112148Z 33016KT 11/M09 A3017 RMK A01 T01121089  RH  024%=      5-min Rain = 0
KBI1 112149Z 33015G20KT 11/M09 A3017 RMK A01 T01131086  RH  024%=      5-min Rain = 0
KBI1 112150Z 34019KT 12/M09 A3017 RMK A01 T01151089  RH  023%=      5-min Rain = 0
KBI1 112151Z 34015G20KT 11/M09 A3017 RMK A01 T01131092  RH  023%=      5-min Rain = 0
KBI1 112152Z 34017G22KT 11/M09 A3017 RMK A01 T01131093  RH  023%=      5-min Rain = 0
KBI1 112153Z 33018KT 11/M10 A3017 RMK A01 T01131095  RH  022%=      5-min Rain = 0
KBI1 112154Z 33016G22KT 11/M10 A3017 RMK A01 T01111095  RH  023%=      5-min Rain = 0
KBI1 112155Z 34014KT 11/M10 A3017 RMK A01 T01101096  RH  023%=      5-min Rain = 0
KBI1 112156Z 34012G17KT 11/M10 A3018 RMK A01 T01081095  RH  023%=      5-min Rain = 0
KBI1 112157Z 34016KT 11/M10 A3018 RMK A01 T01081096  RH  023%=      5-min Rain = 0
KBI1 112158Z 35014KT 11/M10 A3018 RMK A01 T01071097  RH  023%=      5-min Rain = 0
KBI1 112159Z 34015KT 11/M10 A3018 RMK A01 T01071096  RH  023%=      5-min Rain = 0
KBI1 112200Z 35014KT 11/M10 A3018 RMK A01 T01061096  RH  023%=      5-min Rain = 0
KBI1 112201Z 34014KT 11/M10 A3018 RMK A01 T01051095  RH  023%=      5-min Rain = 0
KBI1 112202Z 34014G19KT 11/M10 A3018 RMK A01 T01051095  RH  023%=      5-min Rain = 0
KBI1 112203Z 34015KT 10/M10 A3018 RMK A01 T01041095  RH  024%=      5-min Rain = 0
KBI1 112204Z 34016KT 10/M09 A3018 RMK A01 T01041094  RH  024%=      5-min Rain = 0
KBI1 112205Z 34017KT 10/M09 A3018 RMK A01 T01041093  RH  024%=      5-min Rain = 0
KBI1 112206Z 33013KT 10/M09 A3018 RMK A01 T01041091  RH  024%=      5-min Rain = 0
KBI1 112207Z 33011KT 10/M09 A3018 RMK A01 T01041089  RH  025%=      5-min Rain = 0
KBI1 112208Z 32012KT 11/M09 A3018 RMK A01 T01051086  RH  025%=      5-min Rain = 0
KBI1 112209Z 32012G18KT 11/M08 A3018 RMK A01 T01061080  RH  026%=      5-min Rain = 0
KBI1 112210Z 32016G21KT 11/M08 A3018 RMK A01 T01061080  RH  026%=      5-min Rain = 0
KBI1 112211Z 32021G26KT 11/M09 A3018 RMK A01 T01051085  RH  025%=      5-min Rain = 0
KBI1 112212Z 33019G24KT 10/M09 A3018 RMK A01 T01041088  RH  025%=      5-min Rain = 0
KBI1 112213Z 33019KT 10/M09 A3019 RMK A01 T01041087  RH  025%=      5-min Rain = 0
KBI1 112214Z 32019KT 11/M09 A3018 RMK A01 T01061088  RH  025%=      5-min Rain = 0
KBI1 112215Z 33018G23KT 11/M09 A3018 RMK A01 T01071090  RH  024%=      5-min Rain = 0
KBI1 112216Z 33014G19KT 11/M09 A3019 RMK A01 T01081089  RH  024%=      5-min Rain = 0
KBI1 112217Z 33018G23KT 11/M09 A3018 RMK A01 T01101088  RH  024%=      5-min Rain = 0
KBI1 112218Z 32015G21KT 11/M09 A3018 RMK A01 T01101090  RH  024%=      5-min Rain = 0
KBI1 112219Z 33016KT 11/M09 A3018 RMK A01 T01101091  RH  024%=      5-min Rain = 0
KBI1 112220Z 33016KT 11/M09 A3018 RMK A01 T01101092  RH  023%=      5-min Rain = 0
KBI1 112221Z 34020KT 11/M09 A3018 RMK A01 T01101093  RH  023%=      5-min Rain = 0
KBI1 112222Z 34017KT 11/M09 A3018 RMK A01 T01101094  RH  023%=      5-min Rain = 0
KBI1 112223Z 34021G26KT 11/M10 A3018 RMK A01 T01101095  RH  023%=      5-min Rain = 0
KBI1 112224Z 34018G24KT 11/M10 A3019 RMK A01 T01101097  RH  022%=      5-min Rain = 0
KBI1 112225Z 33018KT 11/M10 A3019 RMK A01 T01111098  RH  022%=      5-min Rain = 0
KBI1 112226Z 33016KT 11/M10 A3018 RMK A01 T01101099  RH  022%=      5-min Rain = 0
KBI1 112227Z 34017G23KT 11/M10 A3019 RMK A01 T01111098  RH  022%=      5-min Rain = 0
KBI1 112228Z 34024G29KT 11/M10 A3018 RMK A01 T01121100  RH  021%=      5-min Rain = 0
KBI1 112229Z 34022G27KT 11/M11 A3019 RMK A01 T01121106  RH  021%=      5-min Rain = 0
KBI1 112230Z 33021G27KT 11/M11 A3018 RMK A01 T01111107  RH  021%=      5-min Rain = 0
KBI1 112231Z 34019G24KT 11/M11 A3019 RMK A01 T01111107  RH  021%=      5-min Rain = 0
KBI1 112232Z 35021G26KT 11/M11 A3019 RMK A01 T01111107  RH  021%=      5-min Rain = 0
KBI1 112233Z 34019G24KT 11/M11 A3019 RMK A01 T01101108  RH  020%=      5-min Rain = 0
KBI1 112234Z 34019G24KT 11/M11 A3019 RMK A01 T01101108  RH  020%=      5-min Rain = 0
KBI1 112235Z 34019KT 11/M11 A3019 RMK A01 T01101109  RH  020%=      5-min Rain = 0
KBI1 112236Z 34019G25KT 11/M11 A3019 RMK A01 T01101108  RH  020%=      5-min Rain = 0
KBI1 112237Z 35021G26KT 11/M11 A3019 RMK A01 T01101108  RH  021%=      5-min Rain = 0
KBI1 112238Z 34019G24KT 11/M11 A3019 RMK A01 T01101108  RH  021%=      5-min Rain = 0
KBI1 112239Z 35021KT 11/M11 A3019 RMK A01 T01101107  RH  021%=      5-min Rain = 0
KBI1 112240Z 35019G24KT 11/M11 A3019 RMK A01 T01091106  RH  021%=      5-min Rain = 0
KBI1 112241Z 35020KT 11/M11 A3019 RMK A01 T01091106  RH  021%=      5-min Rain = 0
KBI1 112242Z 35017G23KT 11/M10 A3019 RMK A01 T01081104  RH  021%=      5-min Rain = 0
KBI1 112243Z 34015KT 11/M10 A3019 RMK A01 T01091103  RH  022%=      5-min Rain = 0
KBI1 112244Z 34019KT 11/M10 A3019 RMK A01 T01101100  RH  022%=      5-min Rain = 0
KBI1 112245Z 35017KT 11/M10 A3019 RMK A01 T01101098  RH  022%=      5-min Rain = 0
KBI1 112246Z 34015G23KT 11/M10 A3019 RMK A01 T01101098  RH  022%=      5-min Rain = 0
KBI1 112247Z 34016KT 11/M10 A302 RMK A01 T01101097  RH  022%=      5-min Rain = 0
KBI1 112248Z 34015KT 11/M10 A302 RMK A01 T01101096  RH  023%=      5-min Rain = 0
KBI1 112249Z 34016G21KT 11/M10 A302 RMK A01 T01101095  RH  023%=      5-min Rain = 0
KBI1 112250Z 34018KT 11/M10 A302 RMK A01 T01101095  RH  023%=      5-min Rain = 0
KBI1 112251Z 33018KT 11/M09 A302 RMK A01 T01091094  RH  023%=      5-min Rain = 0
KBI1 112252Z 33017G22KT 11/M09 A302 RMK A01 T01081094  RH  023%=      5-min Rain = 0
KBI1 112253Z 34016KT 11/M09 A302 RMK A01 T01091093  RH  023%=      5-min Rain = 0
KBI1 112254Z 33013KT 11/M09 A302 RMK A01 T01081092  RH  024%=      5-min Rain = 0
KBI1 112255Z 33015KT 11/M09 A302 RMK A01 T01091091  RH  024%=      5-min Rain = 0
KBI1 112256Z 33017KT 11/M09 A302 RMK A01 T01091091  RH  024%=      5-min Rain = 0
KBI1 112257Z 34014KT 11/M09 A302 RMK A01 T01091091  RH  024%=      5-min Rain = 0
KBI1 112258Z 34016G21KT 11/M09 A302 RMK A01 T01091090  RH  024%=      5-min Rain = 0
KBI1 112259Z 33020KT 11/M10 A302 RMK A01 T01091095  RH  023%=      5-min Rain = 0
KBI1 112300Z 33023KT 11/M10 A302 RMK A01 T01081099  RH  022%=      5-min Rain = 0
KBI1 112301Z 33021KT 11/M10 A302 RMK A01 T01061103  RH  022%=      5-min Rain = 0
KBI1 112302Z 33019G24KT 11/M10 A302 RMK A01 T01051104  RH  022%=      5-min Rain = 0
KBI1 112303Z 33018KT 11/M11 A302 RMK A01 T01051105  RH  022%=      5-min Rain = 0
KBI1 112304Z 34018KT 11/M10 A3021 RMK A01 T01051104  RH  022%=      5-min Rain = 0
KBI1 112305Z 34019KT 11/M10 A3021 RMK A01 T01051104  RH  022%=      5-min Rain = 0
KBI1 112306Z 34017KT 11/M10 A3021 RMK A01 T01051104  RH  022%=      5-min Rain = 0
KBI1 112307Z 34020G25KT 11/M10 A3021 RMK A01 T01051103  RH  022%=      5-min Rain = 0
KBI1 112308Z 33022KT 10/M11 A3021 RMK A01 T01041105  RH  022%=      5-min Rain = 0
KBI1 112309Z 33022KT 10/M11 A3021 RMK A01 T01031106  RH  022%=      5-min Rain = 0
KBI1 112310Z 34021G26KT 10/M11 A3021 RMK A01 T01021107  RH  022%=      5-min Rain = 0
KBI1 112311Z 33019G25KT 10/M11 A3021 RMK A01 T01021106  RH  022%=      5-min Rain = 0
KBI1 112312Z 34018KT 10/M11 A3021 RMK A01 T01021106  RH  022%=      5-min Rain = 0
KBI1 112313Z 34017KT 10/M11 A3021 RMK A01 T01021105  RH  022%=      5-min Rain = 0
KBI1 112314Z 33016KT 10/M11 A3021 RMK A01 T01021105  RH  022%=      5-min Rain = 0
KBI1 112315Z 33015KT 10/M11 A3021 RMK A01 T01011106  RH  022%=      5-min Rain = 0
KBI1 112316Z 33018KT 10/M11 A3021 RMK A01 T01011107  RH  022%=      5-min Rain = 0
KBI1 112317Z 33015G21KT 10/M11 A3021 RMK A01 T01011107  RH  022%=      5-min Rain = 0
KBI1 112318Z 33017KT 10/M11 A3021 RMK A01 T01011107  RH  022%=      5-min Rain = 0
KBI1 112319Z 33016G21KT 10/M11 A3021 RMK A01 T01011106  RH  022%=      5-min Rain = 0
KBI1 112320Z 33018KT 10/M11 A3021 RMK A01 T01011107  RH  022%=      5-min Rain = 0
KBI1 112321Z 33019G26KT 10/M11 A3021 RMK A01 T01011107  RH  022%=      5-min Rain = 0
KBI1 112322Z 33019KT 10/M11 A3021 RMK A01 T01001108  RH  022%=      5-min Rain = 0
KBI1 112323Z 34019KT 10/M11 A3021 RMK A01 T01001108  RH  022%=      5-min Rain = 0
KBI1 112324Z 34017KT 10/M11 A3021 RMK A01 T01001109  RH  022%=      5-min Rain = 0
KBI1 112325Z 34017KT 10/M11 A3021 RMK A01 T01001109  RH  022%=      5-min Rain = 0
KBI1 112326Z 34017KT 10/M11 A3021 RMK A01 T01001109  RH  022%=      5-min Rain = 0
KBI1 112327Z 34018G24KT 10/M11 A3021 RMK A01 T01001109  RH  022%=      5-min Rain = 0
KBI1 112328Z 34016KT 10/M11 A3021 RMK A01 T00991109  RH  022%=      5-min Rain = 0
KBI1 112329Z 34015KT 10/M11 A3021 RMK A01 T00991109  RH  022%=      5-min Rain = 0
KBI1 112330Z 34015KT 10/M11 A3022 RMK A01 T00981108  RH  022%=      5-min Rain = 0
KBI1 112331Z 34015KT 10/M11 A3022 RMK A01 T00981107  RH  022%=      5-min Rain = 0
KBI1 112332Z 34014G19KT 10/M11 A3022 RMK A01 T00971107  RH  023%=      5-min Rain = 0
KBI1 112333Z 34016KT 10/M11 A3022 RMK A01 T00971107  RH  023%=      5-min Rain = 0
KBI1 112334Z 34015KT 10/M11 A3022 RMK A01 T00971107  RH  023%=      5-min Rain = 0
KBI1 112335Z 34014KT 10/M11 A3022 RMK A01 T00971106  RH  023%=      5-min Rain = 0
KBI1 112336Z 34017KT 10/M11 A3022 RMK A01 T00971106  RH  023%=      5-min Rain = 0
KBI1 112337Z 34016KT 10/M11 A3022 RMK A01 T00971106  RH  023%=      5-min Rain = 0
KBI1 112338Z 34015KT 10/M11 A3022 RMK A01 T00961106  RH  023%=      5-min Rain = 0
KBI1 112339Z 34012KT 10/M11 A3021 RMK A01 T00961105  RH  023%=      5-min Rain = 0
KBI1 112340Z 34012KT 09/M11 A3021 RMK A01 T00941105  RH  023%=      5-min Rain = 0
KBI1 112341Z 34011KT 09/M11 A3021 RMK A01 T00931105  RH  024%=      5-min Rain = 0
KBI1 112342Z 34014KT 09/M11 A3021 RMK A01 T00931105  RH  024%=      5-min Rain = 0
KBI1 112343Z 34016KT 09/M10 A3021 RMK A01 T00931104  RH  024%=      5-min Rain = 0
KBI1 112344Z 34013KT 09/M10 A3021 RMK A01 T00931104  RH  024%=      5-min Rain = 0
KBI1 112345Z 34012KT 09/M10 A3021 RMK A01 T00921104  RH  024%=      5-min Rain = 0
KBI1 112346Z 34012KT 09/M10 A3021 RMK A01 T00921104  RH  024%=      5-min Rain = 0
KBI1 112347Z 35013KT 09/M10 A3021 RMK A01 T00921104  RH  024%=      5-min Rain = 0
KBI1 112348Z 34012KT 09/M10 A3021 RMK A01 T00911104  RH  024%=      5-min Rain = 0
KBI1 112349Z 35012KT 09/M10 A3021 RMK A01 T00911104  RH  024%=      5-min Rain = 0
KBI1 112350Z 34011KT 09/M10 A3021 RMK A01 T00901104  RH  024%=      5-min Rain = 0
KBI1 112351Z 34011G16KT 09/M10 A3021 RMK A01 T00901104  RH  024%=      5-min Rain = 0
KBI1 112352Z 34012KT 09/M10 A3021 RMK A01 T00901104  RH  024%=      5-min Rain = 0
KBI1 112353Z 35010KT 09/M10 A3021 RMK A01 T00891104  RH  024%=      5-min Rain = 0
KBI1 112354Z 35011KT 09/M11 A3021 RMK A01 T00881105  RH  024%=      5-min Rain = 0
KBI1 112355Z 35013KT 09/M11 A3021 RMK A01 T00881106  RH  024%=      5-min Rain = 0
KBI1 112356Z 34012KT 09/M11 A3021 RMK A01 T00881106  RH  024%=      5-min Rain = 0
KBI1 112357Z 34011KT 09/M11 A3021 RMK A01 T00891106  RH  024%=      5-min Rain = 0
KBI1 112358Z 34012KT 09/M11 A3021 RMK A01 T00891106  RH  024%=      5-min Rain = 0
KBI1 112359Z 35010KT 09/M11 A3021 RMK A01 T00881106  RH  024%=      5-min Rain = 0
KBI1 120000Z 35011KT 09/M11 A3022 RMK A01 T00861106  RH  024%=      5-min Rain = 0
KBI1 120001Z 35011KT 09/M11 A3021 RMK A01 T00861106  RH  025%=      5-min Rain = 0
KBI1 120002Z 35011KT 09/M11 A3021 RMK A01 T00851106  RH  025%=      5-min Rain = 0
KBI1 120003Z 36011KT 09/M11 A3021 RMK A01 T00851106  RH  025%=      5-min Rain = 0
KBI1 120004Z 35010KT 08/M11 A3022 RMK A01 T00841106  RH  025%=      5-min Rain = 0
KBI1 120005Z 35012KT 08/M11 A3022 RMK A01 T00831106  RH  025%=      5-min Rain = 0
KBI1 120006Z 35011KT 08/M11 A3022 RMK A01 T00831106  RH  025%=      5-min Rain = 0
KBI1 120007Z 35011KT 08/M11 A3022 RMK A01 T00831106  RH  025%=      5-min Rain = 0
KBI1 120008Z 35011KT 08/M11 A3022 RMK A01 T00831105  RH  025%=      5-min Rain = 0
KBI1 120009Z 35010KT 08/M11 A3022 RMK A01 T00831105  RH  025%=      5-min Rain = 0
KBI1 120010Z 34011KT 08/M11 A3022 RMK A01 T00821105  RH  025%=      5-min Rain = 0
KBI1 120011Z 35010KT 08/M11 A3022 RMK A01 T00821105  RH  025%=      5-min Rain = 0
KBI1 120012Z 34010KT 08/M11 A3022 RMK A01 T00811105  RH  026%=      5-min Rain = 0
KBI1 120013Z 34010KT 08/M10 A3022 RMK A01 T00801104  RH  026%=      5-min Rain = 0
KBI1 120014Z 35011KT 08/M10 A3022 RMK A01 T00811104  RH  026%=      5-min Rain = 0
KBI1 120015Z 34011KT 08/M10 A3022 RMK A01 T00801104  RH  026%=      5-min Rain = 0
KBI1 120016Z 35012KT 08/M10 A3022 RMK A01 T00801104  RH  026%=      5-min Rain = 0
KBI1 120017Z 34010KT 08/M10 A3022 RMK A01 T00811104  RH  026%=      5-min Rain = 0
KBI1 120018Z 35011KT 08/M10 A3022 RMK A01 T00811104  RH  026%=      5-min Rain = 0
KBI1 120019Z 35011KT 08/M10 A3022 RMK A01 T00801104  RH  026%=      5-min Rain = 0
KBI1 120020Z 34011KT 08/M10 A3022 RMK A01 T00801104  RH  026%=      5-min Rain = 0
KBI1 120021Z 35011KT 08/M10 A3022 RMK A01 T00801103  RH  026%=      5-min Rain = 0
KBI1 120022Z 34010KT 08/M10 A3022 RMK A01 T00791104  RH  026%=      5-min Rain = 0
KBI1 120023Z 34011KT 08/M10 A3022 RMK A01 T00791104  RH  026%=      5-min Rain = 0
KBI1 120024Z 34010KT 08/M10 A3022 RMK A01 T00791104  RH  026%=      5-min Rain = 0
KBI1 120025Z 34010KT 08/M10 A3022 RMK A01 T00781104  RH  026%=      5-min Rain = 0
KBI1 120026Z 34008KT 08/M10 A3022 RMK A01 T00781104  RH  026%=      5-min Rain = 0
KBI1 120027Z 34008KT 08/M10 A3022 RMK A01 T00771104  RH  026%=      5-min Rain = 0
KBI1 120028Z 35009KT 08/M10 A3022 RMK A01 T00761104  RH  027%=      5-min Rain = 0
KBI1 120029Z 34009KT 08/M10 A3022 RMK A01 T00751104  RH  027%=      5-min Rain = 0
KBI1 120030Z 34008KT 07/M10 A3022 RMK A01 T00741104  RH  027%=      5-min Rain = 0
KBI1 120031Z 34008KT 07/M10 A3022 RMK A01 T00741103  RH  027%=      5-min Rain = 0
KBI1 120032Z 34008KT 07/M10 A3022 RMK A01 T00731103  RH  027%=      5-min Rain = 0
KBI1 120033Z 34008KT 07/M10 A3022 RMK A01 T00721103  RH  028%=      5-min Rain = 0
KBI1 120034Z 34009KT 07/M10 A3022 RMK A01 T00711103  RH  028%=      5-min Rain = 0
KBI1 120035Z 34008KT 07/M10 A3022 RMK A01 T00701103  RH  028%=      5-min Rain = 0
KBI1 120036Z 34007KT 07/M10 A3022 RMK A01 T00701103  RH  028%=      5-min Rain = 0
KBI1 120037Z 34008KT 07/M10 A3023 RMK A01 T00701103  RH  028%=      5-min Rain = 0
KBI1 120038Z 34008KT 07/M10 A3023 RMK A01 T00691103  RH  028%=      5-min Rain = 0
KBI1 120039Z 34008KT 07/M10 A3023 RMK A01 T00681103  RH  028%=      5-min Rain = 0
KBI1 120040Z 34008KT 07/M10 A3023 RMK A01 T00681102  RH  029%=      5-min Rain = 0
KBI1 120041Z 34006KT 07/M10 A3023 RMK A01 T00681102  RH  029%=      5-min Rain = 0
KBI1 120042Z 34007KT 07/M10 A3023 RMK A01 T00671103  RH  029%=      5-min Rain = 0
KBI1 120043Z 34007KT 07/M10 A3023 RMK A01 T00661103  RH  029%=      5-min Rain = 0
KBI1 120044Z 34007KT 07/M10 A3023 RMK A01 T00651103  RH  029%=      5-min Rain = 0
KBI1 120045Z 34007KT 06/M10 A3023 RMK A01 T00641103  RH  029%=      5-min Rain = 0
KBI1 120046Z 34007KT 06/M10 A3023 RMK A01 T00631103  RH  029%=      5-min Rain = 0
KBI1 120047Z 34006KT 06/M10 A3023 RMK A01 T00621102  RH  030%=      5-min Rain = 0
KBI1 120048Z 34007KT 06/M10 A3023 RMK A01 T00611102  RH  030%=      5-min Rain = 0
KBI1 120049Z 34006KT 06/M10 A3023 RMK A01 T00601102  RH  030%=      5-min Rain = 0
KBI1 120050Z 34007KT 06/M10 A3023 RMK A01 T00591102  RH  030%=      5-min Rain = 0
KBI1 120051Z 34007KT 06/M10 A3023 RMK A01 T00581102  RH  031%=      5-min Rain = 0
KBI1 120052Z 34006KT 06/M10 A3023 RMK A01 T00581101  RH  031%=      5-min Rain = 0
KBI1 120053Z 34007KT 06/M10 A3023 RMK A01 T00581102  RH  031%=      5-min Rain = 0
KBI1 120054Z 34007KT 06/M10 A3023 RMK A01 T00581101  RH  031%=      5-min Rain = 0
KBI1 120055Z 34007KT 06/M10 A3023 RMK A01 T00571101  RH  031%=      5-min Rain = 0
KBI1 120056Z 34007KT 06/M10 A3023 RMK A01 T00561101  RH  031%=      5-min Rain = 0
KBI1 120057Z 34007KT 06/M10 A3023 RMK A01 T00561101  RH  031%=      5-min Rain = 0
KBI1 120058Z 34007KT 06/M10 A3023 RMK A01 T00571101  RH  031%=      5-min Rain = 0
KBI1 120059Z 33007KT 06/M10 A3023 RMK A01 T00571101  RH  031%=      5-min Rain = 0
KBI1 120100Z 33007KT 06/M10 A3024 RMK A01 T00561101  RH  031%=      5-min Rain = 0
KBI1 120101Z 33007KT 06/M10 A3024 RMK A01 T00551102  RH  031%=      5-min Rain = 0
KBI1 120102Z 33007KT 05/M10 A3024 RMK A01 T00531102  RH  032%=      5-min Rain = 0
KBI1 120103Z 33007KT 05/M10 A3024 RMK A01 T00531101  RH  032%=      5-min Rain = 0
KBI1 120104Z 33007KT 05/M10 A3024 RMK A01 T00521101  RH  032%=      5-min Rain = 0
KBI1 120105Z 33007KT 05/M10 A3024 RMK A01 T00511101  RH  032%=      5-min Rain = 0
KBI1 120106Z 33007KT 05/M10 A3024 RMK A01 T00501101  RH  033%=      5-min Rain = 0
KBI1 120107Z 33007KT 05/M10 A3024 RMK A01 T00491101  RH  033%=      5-min Rain = 0
KBI1 120108Z 34006KT 05/M10 A3024 RMK A01 T00481102  RH  033%=      5-min Rain = 0
KBI1 120109Z 34006KT 05/M10 A3024 RMK A01 T00461102  RH  033%=      5-min Rain = 0
KBI1 120110Z 33006KT 05/M10 A3024 RMK A01 T00451102  RH  034%=      5-min Rain = 0
KBI1 120111Z 34006KT 04/M10 A3024 RMK A01 T00441102  RH  034%=      5-min Rain = 0
KBI1 120112Z 34006KT 04/M10 A3024 RMK A01 T00441101  RH  034%=      5-min Rain = 0
KBI1 120113Z 33006KT 04/M10 A3024 RMK A01 T00431101  RH  034%=      5-min Rain = 0
KBI1 120114Z 33006KT 04/M10 A3024 RMK A01 T00441101  RH  034%=      5-min Rain = 0
KBI1 120115Z 33006KT 05/M10 A3025 RMK A01 T00451101  RH  034%=      5-min Rain = 0
KBI1 120116Z 33006KT 05/M10 A3025 RMK A01 T00451101  RH  034%=      5-min Rain = 0
KBI1 120117Z 33006KT 05/M10 A3025 RMK A01 T00461101  RH  034%=      5-min Rain = 0
KBI1 120118Z 32006KT 05/M10 A3025 RMK A01 T00461101  RH  034%=      5-min Rain = 0
KBI1 120119Z 32006KT 05/M10 A3025 RMK A01 T00461101  RH  034%=      5-min Rain = 0
KBI1 120120Z 32006KT 05/M10 A3025 RMK A01 T00461101  RH  034%=      5-min Rain = 0
KBI1 120121Z 32006KT 05/M10 A3025 RMK A01 T00461100  RH  034%=      5-min Rain = 0
KBI1 120122Z 32006KT 05/M10 A3025 RMK A01 T00461100  RH  034%=      5-min Rain = 0
KBI1 120123Z 33006KT 05/M10 A3025 RMK A01 T00461100  RH  034%=      5-min Rain = 0
KBI1 120124Z 33007KT 05/M10 A3025 RMK A01 T00471099  RH  034%=      5-min Rain = 0
KBI1 120125Z 33007KT 05/M10 A3025 RMK A01 T00471099  RH  034%=      5-min Rain = 0
KBI1 120126Z 33007KT 05/M10 A3025 RMK A01 T00471100  RH  034%=      5-min Rain = 0
KBI1 120127Z 33007KT 05/M10 A3025 RMK A01 T00471100  RH  034%=      5-min Rain = 0
KBI1 120128Z 33007KT 05/M10 A3025 RMK A01 T00461100  RH  034%=      5-min Rain = 0
KBI1 120129Z 33007KT 05/M10 A3025 RMK A01 T00451100  RH  034%=      5-min Rain = 0
KBI1 120130Z 33008KT 04/M10 A3025 RMK A01 T00441099  RH  034%=      5-min Rain = 0
KBI1 120131Z 33007KT 04/M10 A3025 RMK A01 T00441099  RH  035%=      5-min Rain = 0
KBI1 120132Z 33007KT 04/M10 A3025 RMK A01 T00431099  RH  035%=      5-min Rain = 0
KBI1 120133Z 34008KT 04/M10 A3025 RMK A01 T00421099  RH  035%=      5-min Rain = 0
KBI1 120134Z 33008KT 04/M10 A3025 RMK A01 T00431098  RH  035%=      5-min Rain = 0
KBI1 120135Z 34008KT 04/M10 A3025 RMK A01 T00431097  RH  035%=      5-min Rain = 0
KBI1 120136Z 34007KT 04/M10 A3025 RMK A01 T00431098  RH  035%=      5-min Rain = 0
KBI1 120137Z 33007KT 04/M10 A3025 RMK A01 T00421098  RH  035%=      5-min Rain = 0
KBI1 120138Z 33007KT 04/M10 A3025 RMK A01 T00411098  RH  036%=      5-min Rain = 0
KBI1 120139Z 33007KT 04/M10 A3025 RMK A01 T00401098  RH  036%=      5-min Rain = 0
KBI1 120140Z 33007KT 04/M10 A3025 RMK A01 T00391098  RH  036%=      5-min Rain = 0
KBI1 120141Z 33007KT 04/M10 A3025 RMK A01 T00381099  RH  036%=      5-min Rain = 0
KBI1 120142Z 33007KT 04/M10 A3025 RMK A01 T00371098  RH  036%=      5-min Rain = 0
KBI1 120143Z 33007KT 04/M10 A3025 RMK A01 T00361098  RH  037%=      5-min Rain = 0
KBI1 120144Z 34007KT 04/M10 A3025 RMK A01 T00351098  RH  037%=      5-min Rain = 0
KBI1 120145Z 34007KT 03/M10 A3025 RMK A01 T00341098  RH  037%=      5-min Rain = 0
KBI1 120146Z 34007KT 04/M10 A3025 RMK A01 T00351098  RH  037%=      5-min Rain = 0
KBI1 120147Z 34007KT 04/M10 A3025 RMK A01 T00351098  RH  037%=      5-min Rain = 0
KBI1 120148Z 34007KT 04/M10 A3026 RMK A01 T00351097  RH  037%=      5-min Rain = 0
KBI1 120149Z 34007KT 04/M10 A3026 RMK A01 T00351098  RH  037%=      5-min Rain = 0
KBI1 120150Z 34007KT 04/M10 A3026 RMK A01 T00351098  RH  037%=      5-min Rain = 0
KBI1 120151Z 34007KT 04/M10 A3026 RMK A01 T00361098  RH  037%=      5-min Rain = 0
KBI1 120152Z 33007KT 04/M10 A3026 RMK A01 T00361098  RH  037%=      5-min Rain = 0
KBI1 120153Z 33007KT 04/M10 A3026 RMK A01 T00361098  RH  037%=      5-min Rain = 0
KBI1 120154Z 33007KT 04/M10 A3026 RMK A01 T00351099  RH  037%=      5-min Rain = 0
KBI1 120155Z 33007KT 04/M10 A3026 RMK A01 T00351099  RH  037%=      5-min Rain = 0
KBI1 120156Z 33007KT 03/M10 A3026 RMK A01 T00341099  RH  037%=      5-min Rain = 0
KBI1 120157Z 33007KT 03/M10 A3026 RMK A01 T00331099  RH  037%=      5-min Rain = 0
KBI1 120158Z 33006KT 03/M10 A3026 RMK A01 T00321099  RH  038%=      5-min Rain = 0
KBI1 120159Z 34006KT 03/M10 A3026 RMK A01 T00311098  RH  038%=      5-min Rain = 0
KBI1 120200Z 34006KT 03/M10 A3026 RMK A01 T00291099  RH  038%=      5-min Rain = 0
KBI1 120201Z 34007KT 03/M10 A3026 RMK A01 T00281099  RH  039%=      5-min Rain = 0
KBI1 120202Z 34007KT 03/M10 A3026 RMK A01 T00281098  RH  039%=      5-min Rain = 0
KBI1 120203Z 34007KT 03/M10 A3026 RMK A01 T00281098  RH  039%=      5-min Rain = 0
KBI1 120204Z 34007KT 03/M10 A3026 RMK A01 T00291098  RH  039%=      5-min Rain = 0
KBI1 120205Z 35008KT 03/M10 A3026 RMK A01 T00311098  RH  038%=      5-min Rain = 0
KBI1 120206Z 35007KT 03/M10 A3026 RMK A01 T00341098  RH  038%=      5-min Rain = 0
KBI1 120207Z 34008KT 04/M10 A3026 RMK A01 T00361097  RH  037%=      5-min Rain = 0
KBI1 120208Z 35007KT 04/M10 A3026 RMK A01 T00381098  RH  036%=      5-min Rain = 0
KBI1 120209Z 35007KT 04/M10 A3026 RMK A01 T00391098  RH  036%=      5-min Rain = 0
KBI1 120210Z 35007KT 04/M10 A3026 RMK A01 T00401098  RH  036%=      5-min Rain = 0
KBI1 120211Z 34006KT 04/M10 A3026 RMK A01 T00401099  RH  036%=      5-min Rain = 0
KBI1 120212Z 34006KT 04/M10 A3026 RMK A01 T00391099  RH  036%=      5-min Rain = 0
KBI1 120213Z 34006KT 04/M10 A3026 RMK A01 T00401099  RH  036%=      5-min Rain = 0
KBI1 120214Z 34006KT 04/M10 A3026 RMK A01 T00391099  RH  036%=      5-min Rain = 0
KBI1 120215Z 34005KT 04/M10 A3027 RMK A01 T00391099  RH  036%=      5-min Rain = 0
KBI1 120216Z 34004KT 04/M10 A3027 RMK A01 T00391099  RH  036%=      5-min Rain = 0
KBI1 120217Z 34005KT 04/M10 A3027 RMK A01 T00371100  RH  036%=      5-min Rain = 0
KBI1 120218Z 34004KT 04/M10 A3027 RMK A01 T00361100  RH  036%=      5-min Rain = 0
KBI1 120219Z 34005KT 04/M10 A3027 RMK A01 T00351099  RH  037%=      5-min Rain = 0
KBI1 120220Z 34004KT 03/M10 A3027 RMK A01 T00331100  RH  037%=      5-min Rain = 0
KBI1 120221Z 34004KT 03/M10 A3027 RMK A01 T00321100  RH  038%=      5-min Rain = 0
KBI1 120222Z 34004KT 03/M10 A3027 RMK A01 T00311100  RH  038%=      5-min Rain = 0
KBI1 120223Z 34005KT 03/M10 A3027 RMK A01 T00301099  RH  038%=      5-min Rain = 0
KBI1 120224Z 34005KT 03/M10 A3027 RMK A01 T00301099  RH  038%=      5-min Rain = 0
KBI1 120225Z 35005KT 03/M10 A3027 RMK A01 T00301099  RH  038%=      5-min Rain = 0
KBI1 120226Z 35005KT 03/M10 A3027 RMK A01 T00311099  RH  038%=      5-min Rain = 0
KBI1 120227Z 35006KT 03/M10 A3027 RMK A01 T00311100  RH  037%=      5-min Rain = 0
KBI1 120228Z 35005KT 03/M10 A3027 RMK A01 T00311101  RH  037%=      5-min Rain = 0
KBI1 120229Z 35005KT 03/M10 A3027 RMK A01 T00321101  RH  037%=      5-min Rain = 0
KBI1 120230Z 35005KT 03/M10 A3027 RMK A01 T00321101  RH  037%=      5-min Rain = 0
KBI1 120231Z 35005KT 03/M10 A3027 RMK A01 T00321101  RH  037%=      5-min Rain = 0
KBI1 120232Z 35005KT 03/M10 A3027 RMK A01 T00321102  RH  037%=      5-min Rain = 0
KBI1 120233Z 35006KT 03/M10 A3027 RMK A01 T00321101  RH  037%=      5-min Rain = 0
KBI1 120234Z 35005KT 03/M10 A3027 RMK A01 T00321102  RH  037%=      5-min Rain = 0
KBI1 120235Z 35006KT 03/M10 A3027 RMK A01 T00321101  RH  037%=      5-min Rain = 0
KBI1 120236Z 35006KT 03/M10 A3027 RMK A01 T00321102  RH  037%=      5-min Rain = 0
KBI1 120237Z 34005KT 03/M10 A3027 RMK A01 T00321101  RH  037%=      5-min Rain = 0
KBI1 120238Z 34005KT 03/M10 A3027 RMK A01 T00321102  RH  037%=      5-min Rain = 0
KBI1 120239Z 35005KT 03/M10 A3027 RMK A01 T00311102  RH  037%=      5-min Rain = 0
KBI1 120240Z 34005KT 03/M10 A3027 RMK A01 T00321101  RH  037%=      5-min Rain = 0
KBI1 120241Z 34005KT 03/M10 A3027 RMK A01 T00311102  RH  037%=      5-min Rain = 0
KBI1 120242Z 34005KT 03/M10 A3027 RMK A01 T00301102  RH  037%=      5-min Rain = 0
KBI1 120243Z 35004KT 03/M10 A3027 RMK A01 T00301102  RH  037%=      5-min Rain = 0
KBI1 120244Z 35004KT 03/M10 A3027 RMK A01 T00301102  RH  037%=      5-min Rain = 0
KBI1 120245Z 35004KT 03/M10 A3027 RMK A01 T00301102  RH  037%=      5-min Rain = 0
KBI1 120246Z 35004KT 03/M10 A3027 RMK A01 T00311102  RH  037%=      5-min Rain = 0
KBI1 120247Z 34004KT 03/M10 A3027 RMK A01 T00301102  RH  037%=      5-min Rain = 0
KBI1 120248Z 34005KT 03/M10 A3027 RMK A01 T00301102  RH  037%=      5-min Rain = 0
KBI1 120249Z 34004KT 03/M10 A3028 RMK A01 T00301102  RH  037%=      5-min Rain = 0
KBI1 120250Z 34004KT 03/M10 A3028 RMK A01 T00301102  RH  037%=      5-min Rain = 0
KBI1 120251Z 34004KT 03/M10 A3028 RMK A01 T00291102  RH  037%=      5-min Rain = 0
KBI1 120252Z 34004KT 03/M10 A3028 RMK A01 T00291102  RH  038%=      5-min Rain = 0
KBI1 120253Z 34004KT 03/M10 A3028 RMK A01 T00291102  RH  038%=      5-min Rain = 0
KBI1 120254Z 34005KT 03/M10 A3028 RMK A01 T00281102  RH  038%=      5-min Rain = 0
KBI1 120255Z 34005KT 03/M10 A3028 RMK A01 T00291102  RH  038%=      5-min Rain = 0
KBI1 120256Z 34005KT 03/M10 A3028 RMK A01 T00291102  RH  038%=      5-min Rain = 0
KBI1 120257Z 34005KT 03/M10 A3028 RMK A01 T00291102  RH  038%=      5-min Rain = 0
KBI1 120258Z 34005KT 03/M10 A3028 RMK A01 T00291102  RH  037%=      5-min Rain = 0
KBI1 120259Z 35005KT 03/M10 A3027 RMK A01 T00301102  RH  037%=      5-min Rain = 0
KBI1 120300Z 35005KT 03/M10 A3027 RMK A01 T00301102  RH  037%=      5-min Rain = 0
KBI1 120301Z 35005KT 03/M10 A3027 RMK A01 T00301102  RH  037%=      5-min Rain = 0
KBI1 120302Z 35005KT 03/M10 A3027 RMK A01 T00291102  RH  038%=      5-min Rain = 0
KBI1 120303Z 35005KT 03/M10 A3027 RMK A01 T00271102  RH  038%=      5-min Rain = 0
KBI1 120304Z 35005KT 03/M10 A3027 RMK A01 T00261102  RH  038%=      5-min Rain = 0
KBI1 120305Z 35005KT 03/M10 A3027 RMK A01 T00261102  RH  038%=      5-min Rain = 0
KBI1 120306Z 35005KT 03/M10 A3027 RMK A01 T00261102  RH  038%=      5-min Rain = 0
KBI1 120307Z 00005KT 03/M10 A3027 RMK A01 T00261103  RH  038%=      5-min Rain = 0
KBI1 120308Z 00005KT 03/M10 A3027 RMK A01 T00261103  RH  038%=      5-min Rain = 0
KBI1 120309Z 00005KT 03/M10 A3027 RMK A01 T00261103  RH  038%=      5-min Rain = 0
KBI1 120310Z 00005KT 03/M10 A3027 RMK A01 T00261102  RH  038%=      5-min Rain = 0
KBI1 120311Z 01005KT 03/M10 A3027 RMK A01 T00251102  RH  039%=      5-min Rain = 0
KBI1 120312Z 01005KT 02/M10 A3027 RMK A01 T00241102  RH  039%=      5-min Rain = 0
KBI1 120313Z 01005KT 02/M10 A3027 RMK A01 T00241102  RH  039%=      5-min Rain = 0
KBI1 120314Z 00005KT 02/M10 A3027 RMK A01 T00231102  RH  039%=      5-min Rain = 0
KBI1 120315Z 36005KT 03/M10 A3027 RMK A01 T00251101  RH  039%=      5-min Rain = 0
KBI1 120316Z 36005KT 03/M10 A3027 RMK A01 T00261101  RH  039%=      5-min Rain = 0
KBI1 120317Z 00005KT 03/M10 A3027 RMK A01 T00271101  RH  038%=      5-min Rain = 0
KBI1 120318Z 00005KT 03/M10 A3027 RMK A01 T00281101  RH  038%=      5-min Rain = 0
KBI1 120319Z 00005KT 03/M10 A3027 RMK A01 T00281102  RH  038%=      5-min Rain = 0
KBI1 120320Z 00005KT 03/M10 A3027 RMK A01 T00281102  RH  038%=      5-min Rain = 0
KBI1 120321Z 00005KT 03/M10 A3028 RMK A01 T00291102  RH  038%=      5-min Rain = 0
KBI1 120322Z 00005KT 03/M10 A3028 RMK A01 T00291103  RH  037%=      5-min Rain = 0
KBI1 120323Z 00005KT 03/M10 A3028 RMK A01 T00291103  RH  037%=      5-min Rain = 0
KBI1 120324Z 00004KT 03/M10 A3028 RMK A01 T00281103  RH  037%=      5-min Rain = 0
KBI1 120325Z 00004KT 03/M10 A3028 RMK A01 T00281103  RH  038%=      5-min Rain = 0
KBI1 120326Z 01004KT 03/M10 A3028 RMK A01 T00281102  RH  038%=      5-min Rain = 0
KBI1 120327Z 01004KT 03/M10 A3028 RMK A01 T00281103  RH  038%=      5-min Rain = 0
KBI1 120328Z 01004KT 03/M10 A3028 RMK A01 T00281103  RH  038%=      5-min Rain = 0
KBI1 120329Z 01004KT 03/M10 A3028 RMK A01 T00281102  RH  038%=      5-min Rain = 0
KBI1 120330Z 01004KT 03/M10 A3028 RMK A01 T00281103  RH  038%=      5-min Rain = 0
KBI1 120331Z 01003KT 03/M10 A3028 RMK A01 T00281103  RH  038%=      5-min Rain = 0
KBI1 120332Z 00004KT 03/M10 A3028 RMK A01 T00281103  RH  038%=      5-min Rain = 0
KBI1 120333Z 01004KT 03/M10 A3028 RMK A01 T00281103  RH  038%=      5-min Rain = 0
KBI1 120334Z 01004KT 03/M10 A3028 RMK A01 T00291102  RH  037%=      5-min Rain = 0
KBI1 120335Z 01003KT 03/M10 A3028 RMK A01 T00301102  RH  037%=      5-min Rain = 0
KBI1 120336Z 01004KT 03/M10 A3028 RMK A01 T00301102  RH  037%=      5-min Rain = 0
KBI1 120337Z 02004KT 03/M10 A3028 RMK A01 T00301102  RH  037%=      5-min Rain = 0
KBI1 120338Z 02003KT 03/M10 A3028 RMK A01 T00311102  RH  037%=      5-min Rain = 0
KBI1 120339Z 02003KT 03/M10 A3028 RMK A01 T00321102  RH  037%=      5-min Rain = 0
KBI1 120340Z 02003KT 03/M10 A3028 RMK A01 T00321101  RH  037%=      5-min Rain = 0
KBI1 120341Z 02003KT 03/M10 A3028 RMK A01 T00321100  RH  037%=      5-min Rain = 0
KBI1 120342Z 02004KT 03/M10 A3028 RMK A01 T00331100  RH  037%=      5-min Rain = 0
KBI1 120343Z 02004KT 03/M10 A3028 RMK A01 T00331100  RH  037%=      5-min Rain = 0
KBI1 120344Z 02004KT 03/M10 A3028 RMK A01 T00341101  RH  037%=      5-min Rain = 0
KBI1 120345Z 02003KT 04/M10 A3028 RMK A01 T00351101  RH  036%=      5-min Rain = 0
KBI1 120346Z 02003KT 04/M10 A3028 RMK A01 T00361100  RH  036%=      5-min Rain = 0
KBI1 120347Z 02004KT 04/M10 A3028 RMK A01 T00371100  RH  036%=      5-min Rain = 0
KBI1 120348Z 02003KT 04/M10 A3028 RMK A01 T00361100  RH  036%=      5-min Rain = 0
KBI1 120349Z 02003KT 04/M10 A3029 RMK A01 T00351100  RH  036%=      5-min Rain = 0
KBI1 120350Z 02004KT 04/M10 A3029 RMK A01 T00351101  RH  036%=      5-min Rain = 0
KBI1 120351Z 02004KT 03/M10 A3029 RMK A01 T00341101  RH  036%=      5-min Rain = 0
KBI1 120352Z 02004KT 03/M10 A3029 RMK A01 T00331102  RH  037%=      5-min Rain = 0
KBI1 120353Z 02004KT 03/M10 A3029 RMK A01 T00321102  RH  037%=      5-min Rain = 0
KBI1 120354Z 02004KT 03/M10 A3029 RMK A01 T00331101  RH  037%=      5-min Rain = 0
KBI1 120355Z 02004KT 03/M10 A3029 RMK A01 T00331101  RH  037%=      5-min Rain = 0
KBI1 120356Z 02004KT 03/M10 A3029 RMK A01 T00331101  RH  037%=      5-min Rain = 0
KBI1 120357Z 03004KT 03/M10 A3029 RMK A01 T00331101  RH  037%=      5-min Rain = 0
KBI1 120358Z 03003KT 03/M10 A3029 RMK A01 T00321101  RH  037%=      5-min Rain = 0
KBI1 120359Z 03003KT 03/M10 A3029 RMK A01 T00321101  RH  037%=      5-min Rain = 0
KBI1 120400Z 04003KT 03/M10 A3029 RMK A01 T00321101  RH  037%=      5-min Rain = 0
KBI1 120401Z 03003KT 03/M10 A3029 RMK A01 T00321100  RH  037%=      5-min Rain = 0
KBI1 120402Z 03002KT 03/M10 A3029 RMK A01 T00311101  RH  037%=      5-min Rain = 0
KBI1 120403Z 04002KT 03/M10 A3029 RMK A01 T00311100  RH  037%=      5-min Rain = 0
KBI1 120404Z 04002KT 03/M10 A3029 RMK A01 T00311100  RH  037%=      5-min Rain = 0
KBI1 120405Z 04003KT 03/M10 A3029 RMK A01 T00311101  RH  037%=      5-min Rain = 0
KBI1 120406Z 04003KT 03/M10 A3029 RMK A01 T00311101  RH  037%=      5-min Rain = 0
KBI1 120407Z 04003KT 03/M10 A3029 RMK A01 T00311101  RH  037%=      5-min Rain = 0
KBI1 120408Z 04003KT 03/M10 A3029 RMK A01 T00311102  RH  037%=      5-min Rain = 0
KBI1 120409Z 04003KT 03/M10 A3029 RMK A01 T00331101  RH  037%=      5-min Rain = 0
KBI1 120410Z 04004KT 03/M10 A3029 RMK A01 T00341102  RH  036%=      5-min Rain = 0
KBI1 120411Z 04003KT 03/M10 A3029 RMK A01 T00341102  RH  036%=      5-min Rain = 0
KBI1 120412Z 04004KT 04/M10 A3029 RMK A01 T00351101  RH  036%=      5-min Rain = 0
KBI1 120413Z 04003KT 04/M10 A3029 RMK A01 T00351101  RH  036%=      5-min Rain = 0
KBI1 120414Z 04003KT 04/M10 A3029 RMK A01 T00351101  RH  036%=      5-min Rain = 0
KBI1 120415Z 04003KT 03/M10 A3029 RMK A01 T00341101  RH  036%=      5-min Rain = 0
KBI1 120416Z 04003KT 03/M10 A3029 RMK A01 T00341101  RH  037%=      5-min Rain = 0
KBI1 120417Z 04003KT 03/M10 A3029 RMK A01 T00341100  RH  037%=      5-min Rain = 0
KBI1 120418Z 05003KT 03/M10 A3029 RMK A01 T00341101  RH  037%=      5-min Rain = 0
KBI1 120419Z 05003KT 03/M10 A3029 RMK A01 T00341100  RH  037%=      5-min Rain = 0
KBI1 120420Z 05003KT 03/M10 A3029 RMK A01 T00331100  RH  037%=      5-min Rain = 0
KBI1 120421Z 05003KT 03/M10 A3029 RMK A01 T00331100  RH  037%=      5-min Rain = 0
KBI1 120422Z 05003KT 03/M10 A303 RMK A01 T00321101  RH  037%=      5-min Rain = 0
KBI1 120423Z 04003KT 03/M10 A303 RMK A01 T00321101  RH  037%=      5-min Rain = 0
KBI1 120424Z 04003KT 03/M10 A303 RMK A01 T00321102  RH  037%=      5-min Rain = 0
KBI1 120425Z 05003KT 03/M10 A303 RMK A01 T00321101  RH  037%=      5-min Rain = 0
KBI1 120426Z 05003KT 03/M10 A303 RMK A01 T00311101  RH  037%=      5-min Rain = 0
KBI1 120427Z 05002KT 03/M10 A303 RMK A01 T00311101  RH  038%=      5-min Rain = 0
KBI1 120428Z 05002KT 03/M10 A303 RMK A01 T00301100  RH  038%=      5-min Rain = 0
KBI1 120429Z 04002KT 03/M10 A303 RMK A01 T00291100  RH  038%=      5-min Rain = 0
KBI1 120430Z 05002KT 03/M10 A303 RMK A01 T00291100  RH  038%=      5-min Rain = 0
KBI1 120431Z 05002KT 03/M10 A303 RMK A01 T00281101  RH  038%=      5-min Rain = 0
KBI1 120432Z 05002KT 03/M10 A303 RMK A01 T00281101  RH  038%=      5-min Rain = 0
KBI1 120433Z 05002KT 03/M10 A303 RMK A01 T00271101  RH  038%=      5-min Rain = 0
KBI1 120434Z 05002KT 03/M10 A303 RMK A01 T00271101  RH  038%=      5-min Rain = 0
KBI1 120435Z 05002KT 03/M10 A303 RMK A01 T00261101  RH  038%=      5-min Rain = 0
KBI1 120436Z 06002KT 03/M10 A303 RMK A01 T00261102  RH  038%=      5-min Rain = 0
KBI1 120437Z 07001KT 03/M10 A303 RMK A01 T00261102  RH  038%=      5-min Rain = 0
KBI1 120438Z 05002KT 03/M10 A303 RMK A01 T00251103  RH  038%=      5-min Rain = 0
KBI1 120439Z 05002KT 02/M10 A303 RMK A01 T00241102  RH  039%=      5-min Rain = 0
KBI1 120440Z 05002KT 02/M10 A303 RMK A01 T00241101  RH  039%=      5-min Rain = 0
KBI1 120441Z 05002KT 02/M10 A303 RMK A01 T00241101  RH  039%=      5-min Rain = 0
KBI1 120442Z 05002KT 03/M10 A303 RMK A01 T00251101  RH  039%=      5-min Rain = 0
KBI1 120443Z 04002KT 03/M10 A303 RMK A01 T00261101  RH  039%=      5-min Rain = 0
KBI1 120444Z 04003KT 03/M10 A303 RMK A01 T00261101  RH  038%=      5-min Rain = 0
KBI1 120445Z 03003KT 03/M10 A303 RMK A01 T00271101  RH  038%=      5-min Rain = 0
KBI1 120446Z 03003KT 03/M10 A303 RMK A01 T00281101  RH  038%=      5-min Rain = 0
KBI1 120447Z 03003KT 03/M10 A303 RMK A01 T00281101  RH  038%=      5-min Rain = 0
KBI1 120448Z 02002KT 03/M10 A303 RMK A01 T00291101  RH  038%=      5-min Rain = 0
KBI1 120449Z 02002KT 03/M10 A303 RMK A01 T00291101  RH  038%=      5-min Rain = 0
KBI1 120450Z 02003KT 03/M10 A3031 RMK A01 T00291101  RH  038%=      5-min Rain = 0
KBI1 120451Z 01003KT 03/M10 A3031 RMK A01 T00291101  RH  038%=      5-min Rain = 0
KBI1 120452Z 01002KT 03/M10 A3031 RMK A01 T00281101  RH  038%=      5-min Rain = 0
KBI1 120453Z 02003KT 03/M10 A3031 RMK A01 T00281102  RH  038%=      5-min Rain = 0
KBI1 120454Z 01002KT 03/M10 A3031 RMK A01 T00271102  RH  038%=      5-min Rain = 0
KBI1 120455Z 01002KT 03/M10 A3031 RMK A01 T00251100  RH  039%=      5-min Rain = 0
KBI1 120456Z 01002KT 02/M10 A3031 RMK A01 T00191099  RH  041%=      5-min Rain = 0
KBI1 120457Z 01002KT 02/M10 A3031 RMK A01 T00151100  RH  042%=      5-min Rain = 0
KBI1 120458Z 01002KT 01/M10 A303 RMK A01 T00121101  RH  043%=      5-min Rain = 0
KBI1 120459Z 01002KT 01/M10 A303 RMK A01 T00101102  RH  043%=      5-min Rain = 0
KBI1 120500Z 00002KT 01/M10 A303 RMK A01 T00101101  RH  043%=      5-min Rain = 0
KBI1 120501Z 00002KT 01/M10 A303 RMK A01 T00101101  RH  043%=      5-min Rain = 0
KBI1 120502Z 00002KT 01/M10 A303 RMK A01 T00101101  RH  043%=      5-min Rain = 0
KBI1 120503Z 00002KT 01/M10 A303 RMK A01 T00121100  RH  043%=      5-min Rain = 0
KBI1 120504Z 00002KT 01/M10 A303 RMK A01 T00101100  RH  043%=      5-min Rain = 0
KBI1 120505Z 00002KT 01/M10 A303 RMK A01 T00081100  RH  045%=      5-min Rain = 0
KBI1 120506Z 00002KT 01/M10 A3031 RMK A01 T00051099  RH  046%=      5-min Rain = 0
KBI1 120507Z 00002KT 00/M10 A3031 RMK A01 T00031099  RH  046%=      5-min Rain = 0
KBI1 120508Z 01002KT 00/M10 A3031 RMK A01 T00031098  RH  047%=      5-min Rain = 0
KBI1 120509Z 01002KT 00/M10 A3031 RMK A01 T00021098  RH  047%=      5-min Rain = 0
KBI1 120510Z 02002KT 00/M10 A3031 RMK A01 T00011098  RH  047%=      5-min Rain = 0
KBI1 120511Z 02001KT 00/10 A3031 RMK A01 T00-00-98  RH  048%=      5-min Rain = 0
KBI1 120512Z 01001KT M00/M10 A3031 RMK A01 T10011099  RH  048%=      5-min Rain = 0
KBI1 120513Z 01001KT M00/M10 A3031 RMK A01 T10011099  RH  048%=      5-min Rain = 0
KBI1 120514Z 01001KT M00/M10 A3031 RMK A01 T10021099  RH  048%=      5-min Rain = 0
KBI1 120515Z 01001KT M00/M10 A3031 RMK A01 T10031100  RH  048%=      5-min Rain = 0
KBI1 120516Z 00001KT M00/M10 A303 RMK A01 T10031100  RH  048%=      5-min Rain = 0
KBI1 120517Z 00001KT M00/M10 A303 RMK A01 T10031100  RH  048%=      5-min Rain = 0
KBI1 120518Z 01002KT M00/M10 A303 RMK A01 T10031100  RH  048%=      5-min Rain = 0
KBI1 120519Z 01002KT M00/M10 A303 RMK A01 T10021100  RH  048%=      5-min Rain = 0
KBI1 120520Z 00002KT 00/10 A303 RMK A01 T00-00-100  RH  047%=      5-min Rain = 0
KBI1 120521Z 01002KT 00/M10 A303 RMK A01 T00011099  RH  047%=      5-min Rain = 0
KBI1 120522Z 01002KT 00/M10 A303 RMK A01 T00021098  RH  047%=      5-min Rain = 0
KBI1 120523Z 01002KT 00/M10 A303 RMK A01 T00011098  RH  048%=      5-min Rain = 0
KBI1 120524Z 01003KT 00/10 A303 RMK A01 T00-00-98  RH  048%=      5-min Rain = 0
KBI1 120525Z 01003KT 00/10 A303 RMK A01 T00-00-98  RH  048%=      5-min Rain = 0
KBI1 120526Z 01003KT M00/M10 A303 RMK A01 T10011100  RH  048%=      5-min Rain = 0
KBI1 120527Z 02003KT M00/M10 A303 RMK A01 T10031100  RH  048%=      5-min Rain = 0
KBI1 120528Z 02004KT M00/M10 A303 RMK A01 T10041100  RH  048%=      5-min Rain = 0
KBI1 120529Z 03004KT M01/M10 A303 RMK A01 T10051101  RH  048%=      5-min Rain = 0
KBI1 120530Z 03004KT M00/M10 A303 RMK A01 T10041103  RH  047%=      5-min Rain = 0
KBI1 120531Z 03004KT M00/M10 A303 RMK A01 T10031104  RH  047%=      5-min Rain = 0
KBI1 120532Z 03004KT 00/10 A303 RMK A01 T00000-102  RH  046%=      5-min Rain = 0
KBI1 120533Z 03003KT 00/M10 A303 RMK A01 T00031100  RH  046%=      5-min Rain = 0
KBI1 120534Z 03003KT 01/M10 A303 RMK A01 T00061099  RH  045%=      5-min Rain = 0
KBI1 120535Z 03003KT 01/M10 A303 RMK A01 T00071100  RH  045%=      5-min Rain = 0
KBI1 120536Z 03002KT 01/M10 A303 RMK A01 T00071101  RH  044%=      5-min Rain = 0
KBI1 120537Z 03002KT 01/M10 A303 RMK A01 T00081102  RH  044%=      5-min Rain = 0
KBI1 120538Z 04003KT 01/M10 A303 RMK A01 T00081102  RH  044%=      5-min Rain = 0
KBI1 120539Z 04003KT 01/M10 A303 RMK A01 T00081102  RH  043%=      5-min Rain = 0
KBI1 120540Z 04003KT 01/M10 A303 RMK A01 T00101102  RH  043%=      5-min Rain = 0
KBI1 120541Z 05003KT 01/M10 A303 RMK A01 T00111102  RH  043%=      5-min Rain = 0
KBI1 120542Z 05003KT 01/M10 A303 RMK A01 T00121101  RH  043%=      5-min Rain = 0
KBI1 120543Z 05003KT 01/M10 A303 RMK A01 T00141100  RH  042%=      5-min Rain = 0
KBI1 120544Z 05003KT 02/M10 A303 RMK A01 T00151100  RH  042%=      5-min Rain = 0
KBI1 120545Z 04002KT 02/M10 A303 RMK A01 T00151099  RH  042%=      5-min Rain = 0
KBI1 120546Z 05001KT 02/M10 A303 RMK A01 T00161099  RH  042%=      5-min Rain = 0
KBI1 120547Z 05001KT 02/M10 A303 RMK A01 T00161099  RH  042%=      5-min Rain = 0
KBI1 120548Z 05001KT 02/M10 A303 RMK A01 T00151099  RH  042%=      5-min Rain = 0
KBI1 120549Z 05000KT 02/M10 A303 RMK A01 T00151100  RH  042%=      5-min Rain = 0
KBI1 120550Z 05001KT 02/M10 A303 RMK A01 T00161101  RH  042%=      5-min Rain = 0
KBI1 120551Z 06000KT 02/M10 A303 RMK A01 T00161101  RH  041%=      5-min Rain = 0
KBI1 120552Z 06001KT 02/M10 A303 RMK A01 T00171102  RH  041%=      5-min Rain = 0
KBI1 120553Z 06000KT 02/M10 A303 RMK A01 T00181102  RH  040%=      5-min Rain = 0
KBI1 120554Z 06001KT 02/M10 A303 RMK A01 T00181103  RH  040%=      5-min Rain = 0
KBI1 120555Z 06001KT 02/M10 A303 RMK A01 T00181103  RH  040%=      5-min Rain = 0
KBI1 120556Z 06001KT 02/M10 A303 RMK A01 T00181103  RH  040%=      5-min Rain = 0
KBI1 120557Z 06001KT 02/M10 A303 RMK A01 T00181104  RH  040%=      5-min Rain = 0
KBI1 120558Z 06001KT 02/M10 A303 RMK A01 T00171104  RH  040%=      5-min Rain = 0
KBI1 120559Z 07001KT 02/M10 A303 RMK A01 T00161104  RH  041%=      5-min Rain = 0

Page generated in 0.1259 seconds.